<?xml version="1.0" encoding="UTF-8" standalone="no" ?>
<gpx xmlns="http://www.topografix.com/GPX/1/1" xmlns:xsi="http://www.w3.org/2001/XMLSchema-instance" xsi:schemaLocation="http://www.topografix.com/GPX/1/1 http://www.topografix.com/GPX/1/1/gpx.xsd" version="1.1" creator="VisuGPX - https://www.visugpx.com">
  <metadata>
    <name>boucle st michel de villadeix 12km</name>
  </metadata>
  <trk>
    <name><![CDATA[randogps24-380]]></name>
    <trkseg>
      <trkpt lat="44.98659" lon="0.72223">
        <ele>135.68</ele>
        <time>2017-08-23T12:51:39Z</time>
      </trkpt>
      <trkpt lat="44.9866" lon="0.72222">
        <ele>138.57</ele>
        <time>2017-08-23T12:51:42Z</time>
      </trkpt>
      <trkpt lat="44.9866" lon="0.72223">
        <ele>142.41</ele>
        <time>2017-08-23T12:51:45Z</time>
      </trkpt>
      <trkpt lat="44.98661" lon="0.72222">
        <ele>146.26</ele>
        <time>2017-08-23T12:51:47Z</time>
      </trkpt>
      <trkpt lat="44.98661" lon="0.72222">
        <ele>144.82</ele>
        <time>2017-08-23T12:51:48Z</time>
      </trkpt>
      <trkpt lat="44.98661" lon="0.72222">
        <ele>148.18</ele>
        <time>2017-08-23T12:51:53Z</time>
      </trkpt>
      <trkpt lat="44.9866" lon="0.72222">
        <ele>151.54</ele>
        <time>2017-08-23T12:51:58Z</time>
      </trkpt>
      <trkpt lat="44.98659" lon="0.72223">
        <ele>154.43</ele>
        <time>2017-08-23T12:52:04Z</time>
      </trkpt>
      <trkpt lat="44.9866" lon="0.72221">
        <ele>157.79</ele>
        <time>2017-08-23T12:52:13Z</time>
      </trkpt>
      <trkpt lat="44.98659" lon="0.72221">
        <ele>160.68</ele>
        <time>2017-08-23T12:52:24Z</time>
      </trkpt>
      <trkpt lat="44.98659" lon="0.72223">
        <ele>162.12</ele>
        <time>2017-08-23T12:52:30Z</time>
      </trkpt>
      <trkpt lat="44.98659" lon="0.72223">
        <ele>163.08</ele>
        <time>2017-08-23T12:52:45Z</time>
      </trkpt>
      <trkpt lat="44.98659" lon="0.72223">
        <ele>166.45</ele>
        <time>2017-08-23T12:53:03Z</time>
      </trkpt>
      <trkpt lat="44.98659" lon="0.72223">
        <ele>165</ele>
        <time>2017-08-23T12:53:20Z</time>
      </trkpt>
      <trkpt lat="44.98659" lon="0.72223">
        <ele>165.48</ele>
        <time>2017-08-23T12:53:47Z</time>
      </trkpt>
      <trkpt lat="44.98659" lon="0.72223">
        <ele>165</ele>
        <time>2017-08-23T12:54:09Z</time>
      </trkpt>
      <trkpt lat="44.98659" lon="0.72224">
        <ele>165</ele>
        <time>2017-08-23T12:54:28Z</time>
      </trkpt>
      <trkpt lat="44.98648" lon="0.72226">
        <ele>165.48</ele>
        <time>2017-08-23T12:54:41Z</time>
      </trkpt>
      <trkpt lat="44.9864" lon="0.72229">
        <ele>166.45</ele>
        <time>2017-08-23T12:54:54Z</time>
      </trkpt>
      <trkpt lat="44.98633" lon="0.72237">
        <ele>165.96</ele>
        <time>2017-08-23T12:55:06Z</time>
      </trkpt>
      <trkpt lat="44.9863" lon="0.72239">
        <ele>165.96</ele>
        <time>2017-08-23T12:55:09Z</time>
      </trkpt>
      <trkpt lat="44.98621" lon="0.72246">
        <ele>165.48</ele>
        <time>2017-08-23T12:55:21Z</time>
      </trkpt>
      <trkpt lat="44.98611" lon="0.72246">
        <ele>165.96</ele>
        <time>2017-08-23T12:55:33Z</time>
      </trkpt>
      <trkpt lat="44.98601" lon="0.7225">
        <ele>167.89</ele>
        <time>2017-08-23T12:55:47Z</time>
      </trkpt>
      <trkpt lat="44.98601" lon="0.72238">
        <ele>168.85</ele>
        <time>2017-08-23T12:56:04Z</time>
      </trkpt>
      <trkpt lat="44.98601" lon="0.72221">
        <ele>170.77</ele>
        <time>2017-08-23T12:56:20Z</time>
      </trkpt>
      <trkpt lat="44.98596" lon="0.72208">
        <ele>173.66</ele>
        <time>2017-08-23T12:56:37Z</time>
      </trkpt>
      <trkpt lat="44.98594" lon="0.72206">
        <ele>174.62</ele>
        <time>2017-08-23T12:56:54Z</time>
      </trkpt>
      <trkpt lat="44.98593" lon="0.72199">
        <ele>174.62</ele>
        <time>2017-08-23T12:57:03Z</time>
      </trkpt>
      <trkpt lat="44.98593" lon="0.72187">
        <ele>175.1</ele>
        <time>2017-08-23T12:57:14Z</time>
      </trkpt>
      <trkpt lat="44.98601" lon="0.72186">
        <ele>175.58</ele>
        <time>2017-08-23T12:57:26Z</time>
      </trkpt>
      <trkpt lat="44.98601" lon="0.72182">
        <ele>175.1</ele>
        <time>2017-08-23T12:57:39Z</time>
      </trkpt>
      <trkpt lat="44.98602" lon="0.72179">
        <ele>174.62</ele>
        <time>2017-08-23T12:57:41Z</time>
      </trkpt>
      <trkpt lat="44.986" lon="0.72152">
        <ele>175.58</ele>
        <time>2017-08-23T12:57:55Z</time>
      </trkpt>
      <trkpt lat="44.98599" lon="0.7215">
        <ele>175.58</ele>
        <time>2017-08-23T12:57:56Z</time>
      </trkpt>
      <trkpt lat="44.986" lon="0.72136">
        <ele>175.1</ele>
        <time>2017-08-23T12:58:05Z</time>
      </trkpt>
      <trkpt lat="44.98602" lon="0.72126">
        <ele>175.1</ele>
        <time>2017-08-23T12:58:19Z</time>
      </trkpt>
      <trkpt lat="44.98599" lon="0.7212">
        <ele>175.1</ele>
        <time>2017-08-23T12:58:24Z</time>
      </trkpt>
      <trkpt lat="44.98594" lon="0.72102">
        <ele>174.62</ele>
        <time>2017-08-23T12:58:38Z</time>
      </trkpt>
      <trkpt lat="44.98593" lon="0.72101">
        <ele>174.62</ele>
        <time>2017-08-23T12:58:39Z</time>
      </trkpt>
      <trkpt lat="44.98591" lon="0.72076">
        <ele>174.14</ele>
        <time>2017-08-23T12:58:56Z</time>
      </trkpt>
      <trkpt lat="44.9859" lon="0.72072">
        <ele>174.14</ele>
        <time>2017-08-23T12:58:59Z</time>
      </trkpt>
      <trkpt lat="44.98584" lon="0.72046">
        <ele>173.66</ele>
        <time>2017-08-23T12:59:14Z</time>
      </trkpt>
      <trkpt lat="44.98583" lon="0.72027">
        <ele>173.17</ele>
        <time>2017-08-23T12:59:28Z</time>
      </trkpt>
      <trkpt lat="44.98583" lon="0.72024">
        <ele>172.69</ele>
        <time>2017-08-23T12:59:30Z</time>
      </trkpt>
      <trkpt lat="44.98583" lon="0.72016">
        <ele>172.69</ele>
        <time>2017-08-23T12:59:36Z</time>
      </trkpt>
      <trkpt lat="44.98584" lon="0.72002">
        <ele>172.21</ele>
        <time>2017-08-23T12:59:47Z</time>
      </trkpt>
      <trkpt lat="44.98585" lon="0.71986">
        <ele>171.25</ele>
        <time>2017-08-23T13:00:01Z</time>
      </trkpt>
      <trkpt lat="44.98585" lon="0.7197">
        <ele>170.77</ele>
        <time>2017-08-23T13:00:13Z</time>
      </trkpt>
      <trkpt lat="44.98586" lon="0.71955">
        <ele>170.29</ele>
        <time>2017-08-23T13:00:26Z</time>
      </trkpt>
      <trkpt lat="44.98586" lon="0.71953">
        <ele>170.29</ele>
        <time>2017-08-23T13:00:28Z</time>
      </trkpt>
      <trkpt lat="44.98585" lon="0.71933">
        <ele>168.85</ele>
        <time>2017-08-23T13:00:42Z</time>
      </trkpt>
      <trkpt lat="44.98583" lon="0.71916">
        <ele>168.37</ele>
        <time>2017-08-23T13:00:54Z</time>
      </trkpt>
      <trkpt lat="44.98581" lon="0.71899">
        <ele>167.89</ele>
        <time>2017-08-23T13:01:06Z</time>
      </trkpt>
      <trkpt lat="44.98578" lon="0.71886">
        <ele>167.41</ele>
        <time>2017-08-23T13:01:14Z</time>
      </trkpt>
      <trkpt lat="44.98565" lon="0.71871">
        <ele>165</ele>
        <time>2017-08-23T13:01:30Z</time>
      </trkpt>
      <trkpt lat="44.98555" lon="0.71866">
        <ele>163.08</ele>
        <time>2017-08-23T13:01:45Z</time>
      </trkpt>
      <trkpt lat="44.98552" lon="0.71865">
        <ele>162.6</ele>
        <time>2017-08-23T13:01:49Z</time>
      </trkpt>
      <trkpt lat="44.98546" lon="0.71858">
        <ele>162.6</ele>
        <time>2017-08-23T13:01:53Z</time>
      </trkpt>
      <trkpt lat="44.98524" lon="0.71837">
        <ele>162.12</ele>
        <time>2017-08-23T13:02:05Z</time>
      </trkpt>
      <trkpt lat="44.98518" lon="0.71831">
        <ele>162.6</ele>
        <time>2017-08-23T13:02:09Z</time>
      </trkpt>
      <trkpt lat="44.98503" lon="0.71823">
        <ele>163.56</ele>
        <time>2017-08-23T13:02:24Z</time>
      </trkpt>
      <trkpt lat="44.98496" lon="0.71819">
        <ele>164.04</ele>
        <time>2017-08-23T13:02:38Z</time>
      </trkpt>
      <trkpt lat="44.98493" lon="0.71819">
        <ele>165.96</ele>
        <time>2017-08-23T13:02:52Z</time>
      </trkpt>
      <trkpt lat="44.98484" lon="0.71817">
        <ele>167.89</ele>
        <time>2017-08-23T13:03:09Z</time>
      </trkpt>
      <trkpt lat="44.98468" lon="0.71809">
        <ele>169.81</ele>
        <time>2017-08-23T13:03:26Z</time>
      </trkpt>
      <trkpt lat="44.98455" lon="0.71803">
        <ele>170.77</ele>
        <time>2017-08-23T13:03:40Z</time>
      </trkpt>
      <trkpt lat="44.98438" lon="0.71797">
        <ele>171.73</ele>
        <time>2017-08-23T13:03:54Z</time>
      </trkpt>
      <trkpt lat="44.98424" lon="0.7179">
        <ele>173.17</ele>
        <time>2017-08-23T13:04:10Z</time>
      </trkpt>
      <trkpt lat="44.98406" lon="0.71783">
        <ele>174.62</ele>
        <time>2017-08-23T13:04:25Z</time>
      </trkpt>
      <trkpt lat="44.98399" lon="0.71779">
        <ele>176.06</ele>
        <time>2017-08-23T13:04:42Z</time>
      </trkpt>
      <trkpt lat="44.98384" lon="0.71772">
        <ele>177.5</ele>
        <time>2017-08-23T13:04:56Z</time>
      </trkpt>
      <trkpt lat="44.98371" lon="0.71765">
        <ele>178.94</ele>
        <time>2017-08-23T13:05:11Z</time>
      </trkpt>
      <trkpt lat="44.98361" lon="0.71757">
        <ele>180.38</ele>
        <time>2017-08-23T13:05:25Z</time>
      </trkpt>
      <trkpt lat="44.98358" lon="0.71753">
        <ele>181.83</ele>
        <time>2017-08-23T13:05:38Z</time>
      </trkpt>
      <trkpt lat="44.98355" lon="0.71751">
        <ele>181.83</ele>
        <time>2017-08-23T13:05:41Z</time>
      </trkpt>
      <trkpt lat="44.98342" lon="0.71749">
        <ele>182.79</ele>
        <time>2017-08-23T13:05:54Z</time>
      </trkpt>
      <trkpt lat="44.98337" lon="0.71741">
        <ele>182.79</ele>
        <time>2017-08-23T13:06:23Z</time>
      </trkpt>
      <trkpt lat="44.98336" lon="0.71737">
        <ele>182.79</ele>
        <time>2017-08-23T13:06:45Z</time>
      </trkpt>
      <trkpt lat="44.98336" lon="0.71725">
        <ele>182.79</ele>
        <time>2017-08-23T13:06:54Z</time>
      </trkpt>
      <trkpt lat="44.98337" lon="0.71716">
        <ele>183.27</ele>
        <time>2017-08-23T13:07:07Z</time>
      </trkpt>
      <trkpt lat="44.98335" lon="0.71712">
        <ele>183.27</ele>
        <time>2017-08-23T13:07:26Z</time>
      </trkpt>
      <trkpt lat="44.98335" lon="0.71712">
        <ele>183.27</ele>
        <time>2017-08-23T13:07:48Z</time>
      </trkpt>
      <trkpt lat="44.98335" lon="0.71711">
        <ele>183.27</ele>
        <time>2017-08-23T13:08:12Z</time>
      </trkpt>
      <trkpt lat="44.98335" lon="0.71711">
        <ele>182.79</ele>
        <time>2017-08-23T13:08:39Z</time>
      </trkpt>
      <trkpt lat="44.98336" lon="0.71709">
        <ele>182.79</ele>
        <time>2017-08-23T13:09:01Z</time>
      </trkpt>
      <trkpt lat="44.98339" lon="0.71697">
        <ele>182.79</ele>
        <time>2017-08-23T13:09:09Z</time>
      </trkpt>
      <trkpt lat="44.98343" lon="0.71675">
        <ele>183.27</ele>
        <time>2017-08-23T13:09:22Z</time>
      </trkpt>
      <trkpt lat="44.98351" lon="0.71654">
        <ele>183.75</ele>
        <time>2017-08-23T13:09:37Z</time>
      </trkpt>
      <trkpt lat="44.98357" lon="0.71632">
        <ele>184.23</ele>
        <time>2017-08-23T13:09:50Z</time>
      </trkpt>
      <trkpt lat="44.9836" lon="0.71625">
        <ele>184.23</ele>
        <time>2017-08-23T13:09:55Z</time>
      </trkpt>
      <trkpt lat="44.98369" lon="0.71611">
        <ele>184.71</ele>
        <time>2017-08-23T13:10:08Z</time>
      </trkpt>
      <trkpt lat="44.9838" lon="0.71591">
        <ele>184.71</ele>
        <time>2017-08-23T13:10:22Z</time>
      </trkpt>
      <trkpt lat="44.98385" lon="0.71575">
        <ele>185.19</ele>
        <time>2017-08-23T13:10:38Z</time>
      </trkpt>
      <trkpt lat="44.98385" lon="0.7157">
        <ele>185.67</ele>
        <time>2017-08-23T13:10:54Z</time>
      </trkpt>
      <trkpt lat="44.98392" lon="0.71554">
        <ele>185.67</ele>
        <time>2017-08-23T13:11:10Z</time>
      </trkpt>
      <trkpt lat="44.9841" lon="0.71525">
        <ele>186.15</ele>
        <time>2017-08-23T13:11:25Z</time>
      </trkpt>
      <trkpt lat="44.9842" lon="0.7151">
        <ele>187.11</ele>
        <time>2017-08-23T13:11:40Z</time>
      </trkpt>
      <trkpt lat="44.98427" lon="0.71496">
        <ele>188.08</ele>
        <time>2017-08-23T13:11:56Z</time>
      </trkpt>
      <trkpt lat="44.98427" lon="0.71495">
        <ele>188.08</ele>
        <time>2017-08-23T13:11:58Z</time>
      </trkpt>
      <trkpt lat="44.9843" lon="0.71484">
        <ele>188.56</ele>
        <time>2017-08-23T13:12:07Z</time>
      </trkpt>
      <trkpt lat="44.98441" lon="0.71478">
        <ele>189.04</ele>
        <time>2017-08-23T13:12:24Z</time>
      </trkpt>
      <trkpt lat="44.98442" lon="0.71476">
        <ele>188.56</ele>
        <time>2017-08-23T13:12:50Z</time>
      </trkpt>
      <trkpt lat="44.98449" lon="0.71466">
        <ele>189.04</ele>
        <time>2017-08-23T13:13:02Z</time>
      </trkpt>
      <trkpt lat="44.9846" lon="0.71448">
        <ele>189.52</ele>
        <time>2017-08-23T13:13:15Z</time>
      </trkpt>
      <trkpt lat="44.98469" lon="0.71439">
        <ele>189.52</ele>
        <time>2017-08-23T13:13:21Z</time>
      </trkpt>
      <trkpt lat="44.98476" lon="0.71432">
        <ele>190</ele>
        <time>2017-08-23T13:13:26Z</time>
      </trkpt>
      <trkpt lat="44.98492" lon="0.71419">
        <ele>190</ele>
        <time>2017-08-23T13:13:40Z</time>
      </trkpt>
      <trkpt lat="44.98502" lon="0.71414">
        <ele>190.48</ele>
        <time>2017-08-23T13:13:50Z</time>
      </trkpt>
      <trkpt lat="44.98507" lon="0.71412">
        <ele>189.52</ele>
        <time>2017-08-23T13:13:55Z</time>
      </trkpt>
      <trkpt lat="44.9852" lon="0.71403">
        <ele>189.52</ele>
        <time>2017-08-23T13:14:11Z</time>
      </trkpt>
      <trkpt lat="44.98533" lon="0.71398">
        <ele>189.52</ele>
        <time>2017-08-23T13:14:25Z</time>
      </trkpt>
      <trkpt lat="44.98537" lon="0.71397">
        <ele>189.52</ele>
        <time>2017-08-23T13:14:29Z</time>
      </trkpt>
      <trkpt lat="44.98553" lon="0.71391">
        <ele>190</ele>
        <time>2017-08-23T13:14:46Z</time>
      </trkpt>
      <trkpt lat="44.98561" lon="0.7139">
        <ele>189.52</ele>
        <time>2017-08-23T13:14:58Z</time>
      </trkpt>
      <trkpt lat="44.98567" lon="0.71388">
        <ele>190</ele>
        <time>2017-08-23T13:15:08Z</time>
      </trkpt>
      <trkpt lat="44.98581" lon="0.71389">
        <ele>189.52</ele>
        <time>2017-08-23T13:15:22Z</time>
      </trkpt>
      <trkpt lat="44.98598" lon="0.71389">
        <ele>189.52</ele>
        <time>2017-08-23T13:15:38Z</time>
      </trkpt>
      <trkpt lat="44.98612" lon="0.71396">
        <ele>189.52</ele>
        <time>2017-08-23T13:15:53Z</time>
      </trkpt>
      <trkpt lat="44.98623" lon="0.71397">
        <ele>189.52</ele>
        <time>2017-08-23T13:16:06Z</time>
      </trkpt>
      <trkpt lat="44.98635" lon="0.71399">
        <ele>189.52</ele>
        <time>2017-08-23T13:16:21Z</time>
      </trkpt>
      <trkpt lat="44.98648" lon="0.71398">
        <ele>190</ele>
        <time>2017-08-23T13:16:34Z</time>
      </trkpt>
      <trkpt lat="44.98655" lon="0.71399">
        <ele>190</ele>
        <time>2017-08-23T13:16:38Z</time>
      </trkpt>
      <trkpt lat="44.98673" lon="0.714">
        <ele>190</ele>
        <time>2017-08-23T13:16:48Z</time>
      </trkpt>
      <trkpt lat="44.98675" lon="0.71401">
        <ele>190</ele>
        <time>2017-08-23T13:16:50Z</time>
      </trkpt>
      <trkpt lat="44.98688" lon="0.71406">
        <ele>190.48</ele>
        <time>2017-08-23T13:17:04Z</time>
      </trkpt>
      <trkpt lat="44.98703" lon="0.71408">
        <ele>190.48</ele>
        <time>2017-08-23T13:17:17Z</time>
      </trkpt>
      <trkpt lat="44.9872" lon="0.71413">
        <ele>190.96</ele>
        <time>2017-08-23T13:17:31Z</time>
      </trkpt>
      <trkpt lat="44.98731" lon="0.71415">
        <ele>191.92</ele>
        <time>2017-08-23T13:17:48Z</time>
      </trkpt>
      <trkpt lat="44.9875" lon="0.71419">
        <ele>192.4</ele>
        <time>2017-08-23T13:18:03Z</time>
      </trkpt>
      <trkpt lat="44.98763" lon="0.71425">
        <ele>192.88</ele>
        <time>2017-08-23T13:18:21Z</time>
      </trkpt>
      <trkpt lat="44.98768" lon="0.71433">
        <ele>192.88</ele>
        <time>2017-08-23T13:18:50Z</time>
      </trkpt>
      <trkpt lat="44.9877" lon="0.71433">
        <ele>193.36</ele>
        <time>2017-08-23T13:19:13Z</time>
      </trkpt>
      <trkpt lat="44.98781" lon="0.71433">
        <ele>193.36</ele>
        <time>2017-08-23T13:19:27Z</time>
      </trkpt>
      <trkpt lat="44.98798" lon="0.71436">
        <ele>193.84</ele>
        <time>2017-08-23T13:19:42Z</time>
      </trkpt>
      <trkpt lat="44.98817" lon="0.7144">
        <ele>193.84</ele>
        <time>2017-08-23T13:19:57Z</time>
      </trkpt>
      <trkpt lat="44.98837" lon="0.71452">
        <ele>194.32</ele>
        <time>2017-08-23T13:20:12Z</time>
      </trkpt>
      <trkpt lat="44.98855" lon="0.71458">
        <ele>194.32</ele>
        <time>2017-08-23T13:20:27Z</time>
      </trkpt>
      <trkpt lat="44.9887" lon="0.71465">
        <ele>194.32</ele>
        <time>2017-08-23T13:20:42Z</time>
      </trkpt>
      <trkpt lat="44.98885" lon="0.71469">
        <ele>194.8</ele>
        <time>2017-08-23T13:20:55Z</time>
      </trkpt>
      <trkpt lat="44.98896" lon="0.71473">
        <ele>194.8</ele>
        <time>2017-08-23T13:21:11Z</time>
      </trkpt>
      <trkpt lat="44.98896" lon="0.71474">
        <ele>194.8</ele>
        <time>2017-08-23T13:21:35Z</time>
      </trkpt>
      <trkpt lat="44.98908" lon="0.71478">
        <ele>195.28</ele>
        <time>2017-08-23T13:21:47Z</time>
      </trkpt>
      <trkpt lat="44.98919" lon="0.71485">
        <ele>195.77</ele>
        <time>2017-08-23T13:21:59Z</time>
      </trkpt>
      <trkpt lat="44.98925" lon="0.7149">
        <ele>195.77</ele>
        <time>2017-08-23T13:22:04Z</time>
      </trkpt>
      <trkpt lat="44.98943" lon="0.71502">
        <ele>196.25</ele>
        <time>2017-08-23T13:22:20Z</time>
      </trkpt>
      <trkpt lat="44.98956" lon="0.71512">
        <ele>197.21</ele>
        <time>2017-08-23T13:22:32Z</time>
      </trkpt>
      <trkpt lat="44.98958" lon="0.71513">
        <ele>197.21</ele>
        <time>2017-08-23T13:22:35Z</time>
      </trkpt>
      <trkpt lat="44.98972" lon="0.7153">
        <ele>198.17</ele>
        <time>2017-08-23T13:22:49Z</time>
      </trkpt>
      <trkpt lat="44.98983" lon="0.71544">
        <ele>198.65</ele>
        <time>2017-08-23T13:23:03Z</time>
      </trkpt>
      <trkpt lat="44.98992" lon="0.71554">
        <ele>199.13</ele>
        <time>2017-08-23T13:23:15Z</time>
      </trkpt>
      <trkpt lat="44.99002" lon="0.71562">
        <ele>199.61</ele>
        <time>2017-08-23T13:23:26Z</time>
      </trkpt>
      <trkpt lat="44.99011" lon="0.7157">
        <ele>200.09</ele>
        <time>2017-08-23T13:23:36Z</time>
      </trkpt>
      <trkpt lat="44.99027" lon="0.71578">
        <ele>200.57</ele>
        <time>2017-08-23T13:23:50Z</time>
      </trkpt>
      <trkpt lat="44.99029" lon="0.71578">
        <ele>201.05</ele>
        <time>2017-08-23T13:23:52Z</time>
      </trkpt>
      <trkpt lat="44.99036" lon="0.7159">
        <ele>200.57</ele>
        <time>2017-08-23T13:24:01Z</time>
      </trkpt>
      <trkpt lat="44.99043" lon="0.71609">
        <ele>199.61</ele>
        <time>2017-08-23T13:24:14Z</time>
      </trkpt>
      <trkpt lat="44.99043" lon="0.71611">
        <ele>199.61</ele>
        <time>2017-08-23T13:24:16Z</time>
      </trkpt>
      <trkpt lat="44.99049" lon="0.71627">
        <ele>199.13</ele>
        <time>2017-08-23T13:24:27Z</time>
      </trkpt>
      <trkpt lat="44.99053" lon="0.7163">
        <ele>198.65</ele>
        <time>2017-08-23T13:24:31Z</time>
      </trkpt>
      <trkpt lat="44.99061" lon="0.7165">
        <ele>198.17</ele>
        <time>2017-08-23T13:24:44Z</time>
      </trkpt>
      <trkpt lat="44.99072" lon="0.71669">
        <ele>197.21</ele>
        <time>2017-08-23T13:24:59Z</time>
      </trkpt>
      <trkpt lat="44.99081" lon="0.71683">
        <ele>195.77</ele>
        <time>2017-08-23T13:25:12Z</time>
      </trkpt>
      <trkpt lat="44.99084" lon="0.71687">
        <ele>195.77</ele>
        <time>2017-08-23T13:25:16Z</time>
      </trkpt>
      <trkpt lat="44.99086" lon="0.71689">
        <ele>196.25</ele>
        <time>2017-08-23T13:25:18Z</time>
      </trkpt>
      <trkpt lat="44.99093" lon="0.71684">
        <ele>195.28</ele>
        <time>2017-08-23T13:25:29Z</time>
      </trkpt>
      <trkpt lat="44.99104" lon="0.71674">
        <ele>194.8</ele>
        <time>2017-08-23T13:25:42Z</time>
      </trkpt>
      <trkpt lat="44.99107" lon="0.7167">
        <ele>194.8</ele>
        <time>2017-08-23T13:25:48Z</time>
      </trkpt>
      <trkpt lat="44.99119" lon="0.71662">
        <ele>193.84</ele>
        <time>2017-08-23T13:26:02Z</time>
      </trkpt>
      <trkpt lat="44.99137" lon="0.71659">
        <ele>192.88</ele>
        <time>2017-08-23T13:26:16Z</time>
      </trkpt>
      <trkpt lat="44.99141" lon="0.7166">
        <ele>192.4</ele>
        <time>2017-08-23T13:26:19Z</time>
      </trkpt>
      <trkpt lat="44.99148" lon="0.71662">
        <ele>191.92</ele>
        <time>2017-08-23T13:26:26Z</time>
      </trkpt>
      <trkpt lat="44.99164" lon="0.71663">
        <ele>190</ele>
        <time>2017-08-23T13:26:42Z</time>
      </trkpt>
      <trkpt lat="44.99169" lon="0.71662">
        <ele>190</ele>
        <time>2017-08-23T13:26:47Z</time>
      </trkpt>
      <trkpt lat="44.9918" lon="0.71662">
        <ele>189.04</ele>
        <time>2017-08-23T13:26:58Z</time>
      </trkpt>
      <trkpt lat="44.99193" lon="0.71656">
        <ele>188.08</ele>
        <time>2017-08-23T13:27:13Z</time>
      </trkpt>
      <trkpt lat="44.99203" lon="0.71649">
        <ele>187.11</ele>
        <time>2017-08-23T13:27:27Z</time>
      </trkpt>
      <trkpt lat="44.99213" lon="0.71646">
        <ele>187.11</ele>
        <time>2017-08-23T13:27:38Z</time>
      </trkpt>
      <trkpt lat="44.99219" lon="0.71646">
        <ele>187.59</ele>
        <time>2017-08-23T13:27:51Z</time>
      </trkpt>
      <trkpt lat="44.99231" lon="0.71661">
        <ele>186.63</ele>
        <time>2017-08-23T13:28:05Z</time>
      </trkpt>
      <trkpt lat="44.9924" lon="0.71677">
        <ele>186.63</ele>
        <time>2017-08-23T13:28:16Z</time>
      </trkpt>
      <trkpt lat="44.99245" lon="0.71684">
        <ele>186.63</ele>
        <time>2017-08-23T13:28:23Z</time>
      </trkpt>
      <trkpt lat="44.99252" lon="0.71694">
        <ele>186.63</ele>
        <time>2017-08-23T13:28:39Z</time>
      </trkpt>
      <trkpt lat="44.99252" lon="0.71694">
        <ele>186.63</ele>
        <time>2017-08-23T13:28:40Z</time>
      </trkpt>
      <trkpt lat="44.99255" lon="0.717">
        <ele>187.11</ele>
        <time>2017-08-23T13:28:47Z</time>
      </trkpt>
      <trkpt lat="44.99261" lon="0.71708">
        <ele>187.11</ele>
        <time>2017-08-23T13:28:55Z</time>
      </trkpt>
      <trkpt lat="44.99271" lon="0.71725">
        <ele>187.11</ele>
        <time>2017-08-23T13:29:10Z</time>
      </trkpt>
      <trkpt lat="44.99274" lon="0.71731">
        <ele>187.11</ele>
        <time>2017-08-23T13:29:16Z</time>
      </trkpt>
      <trkpt lat="44.99276" lon="0.71737">
        <ele>186.63</ele>
        <time>2017-08-23T13:29:20Z</time>
      </trkpt>
      <trkpt lat="44.99281" lon="0.71757">
        <ele>185.67</ele>
        <time>2017-08-23T13:29:34Z</time>
      </trkpt>
      <trkpt lat="44.99283" lon="0.71767">
        <ele>185.19</ele>
        <time>2017-08-23T13:29:42Z</time>
      </trkpt>
      <trkpt lat="44.99288" lon="0.71782">
        <ele>184.23</ele>
        <time>2017-08-23T13:29:54Z</time>
      </trkpt>
      <trkpt lat="44.99289" lon="0.71787">
        <ele>184.23</ele>
        <time>2017-08-23T13:29:57Z</time>
      </trkpt>
      <trkpt lat="44.99293" lon="0.71802">
        <ele>183.27</ele>
        <time>2017-08-23T13:30:09Z</time>
      </trkpt>
      <trkpt lat="44.99295" lon="0.71809">
        <ele>182.79</ele>
        <time>2017-08-23T13:30:21Z</time>
      </trkpt>
      <trkpt lat="44.99296" lon="0.71811">
        <ele>181.83</ele>
        <time>2017-08-23T13:30:34Z</time>
      </trkpt>
      <trkpt lat="44.99304" lon="0.7181">
        <ele>181.35</ele>
        <time>2017-08-23T13:30:46Z</time>
      </trkpt>
      <trkpt lat="44.99321" lon="0.71805">
        <ele>180.38</ele>
        <time>2017-08-23T13:31:01Z</time>
      </trkpt>
      <trkpt lat="44.99338" lon="0.71802">
        <ele>179.9</ele>
        <time>2017-08-23T13:31:14Z</time>
      </trkpt>
      <trkpt lat="44.99347" lon="0.71801">
        <ele>179.42</ele>
        <time>2017-08-23T13:31:22Z</time>
      </trkpt>
      <trkpt lat="44.99354" lon="0.718">
        <ele>179.42</ele>
        <time>2017-08-23T13:31:30Z</time>
      </trkpt>
      <trkpt lat="44.99371" lon="0.71795">
        <ele>178.94</ele>
        <time>2017-08-23T13:31:44Z</time>
      </trkpt>
      <trkpt lat="44.99386" lon="0.7179">
        <ele>178.46</ele>
        <time>2017-08-23T13:31:57Z</time>
      </trkpt>
      <trkpt lat="44.99401" lon="0.71783">
        <ele>177.98</ele>
        <time>2017-08-23T13:32:12Z</time>
      </trkpt>
      <trkpt lat="44.99412" lon="0.71776">
        <ele>177.02</ele>
        <time>2017-08-23T13:32:26Z</time>
      </trkpt>
      <trkpt lat="44.99423" lon="0.7177">
        <ele>176.54</ele>
        <time>2017-08-23T13:32:41Z</time>
      </trkpt>
      <trkpt lat="44.99435" lon="0.71762">
        <ele>176.54</ele>
        <time>2017-08-23T13:32:57Z</time>
      </trkpt>
      <trkpt lat="44.99454" lon="0.71749">
        <ele>176.06</ele>
        <time>2017-08-23T13:33:15Z</time>
      </trkpt>
      <trkpt lat="44.99466" lon="0.71741">
        <ele>176.06</ele>
        <time>2017-08-23T13:33:28Z</time>
      </trkpt>
      <trkpt lat="44.99483" lon="0.71731">
        <ele>175.1</ele>
        <time>2017-08-23T13:33:43Z</time>
      </trkpt>
      <trkpt lat="44.99489" lon="0.71727">
        <ele>175.1</ele>
        <time>2017-08-23T13:33:59Z</time>
      </trkpt>
      <trkpt lat="44.99501" lon="0.71722">
        <ele>174.62</ele>
        <time>2017-08-23T13:34:13Z</time>
      </trkpt>
      <trkpt lat="44.99518" lon="0.71715">
        <ele>174.14</ele>
        <time>2017-08-23T13:34:27Z</time>
      </trkpt>
      <trkpt lat="44.99532" lon="0.71712">
        <ele>174.14</ele>
        <time>2017-08-23T13:34:42Z</time>
      </trkpt>
      <trkpt lat="44.99553" lon="0.7171">
        <ele>174.14</ele>
        <time>2017-08-23T13:34:56Z</time>
      </trkpt>
      <trkpt lat="44.99567" lon="0.71707">
        <ele>174.14</ele>
        <time>2017-08-23T13:35:09Z</time>
      </trkpt>
      <trkpt lat="44.99578" lon="0.71709">
        <ele>174.14</ele>
        <time>2017-08-23T13:35:23Z</time>
      </trkpt>
      <trkpt lat="44.9959" lon="0.71709">
        <ele>174.62</ele>
        <time>2017-08-23T13:35:36Z</time>
      </trkpt>
      <trkpt lat="44.99604" lon="0.71711">
        <ele>176.54</ele>
        <time>2017-08-23T13:35:52Z</time>
      </trkpt>
      <trkpt lat="44.99614" lon="0.71711">
        <ele>176.06</ele>
        <time>2017-08-23T13:36:06Z</time>
      </trkpt>
      <trkpt lat="44.99631" lon="0.71717">
        <ele>176.54</ele>
        <time>2017-08-23T13:36:20Z</time>
      </trkpt>
      <trkpt lat="44.99645" lon="0.71721">
        <ele>177.02</ele>
        <time>2017-08-23T13:36:33Z</time>
      </trkpt>
      <trkpt lat="44.9966" lon="0.71726">
        <ele>177.02</ele>
        <time>2017-08-23T13:36:46Z</time>
      </trkpt>
      <trkpt lat="44.9967" lon="0.71727">
        <ele>177.02</ele>
        <time>2017-08-23T13:37:02Z</time>
      </trkpt>
      <trkpt lat="44.99679" lon="0.71731">
        <ele>176.54</ele>
        <time>2017-08-23T13:37:14Z</time>
      </trkpt>
      <trkpt lat="44.99689" lon="0.71733">
        <ele>176.06</ele>
        <time>2017-08-23T13:37:27Z</time>
      </trkpt>
      <trkpt lat="44.99717" lon="0.71748">
        <ele>175.58</ele>
        <time>2017-08-23T13:37:42Z</time>
      </trkpt>
      <trkpt lat="44.99738" lon="0.7176">
        <ele>175.1</ele>
        <time>2017-08-23T13:37:58Z</time>
      </trkpt>
      <trkpt lat="44.9975" lon="0.71772">
        <ele>174.14</ele>
        <time>2017-08-23T13:38:12Z</time>
      </trkpt>
      <trkpt lat="44.99764" lon="0.71783">
        <ele>174.14</ele>
        <time>2017-08-23T13:38:26Z</time>
      </trkpt>
      <trkpt lat="44.99774" lon="0.71788">
        <ele>173.66</ele>
        <time>2017-08-23T13:38:39Z</time>
      </trkpt>
      <trkpt lat="44.99789" lon="0.71793">
        <ele>173.66</ele>
        <time>2017-08-23T13:38:54Z</time>
      </trkpt>
      <trkpt lat="44.99792" lon="0.71794">
        <ele>174.14</ele>
        <time>2017-08-23T13:38:57Z</time>
      </trkpt>
      <trkpt lat="44.99804" lon="0.71796">
        <ele>174.14</ele>
        <time>2017-08-23T13:39:08Z</time>
      </trkpt>
      <trkpt lat="44.9982" lon="0.71799">
        <ele>174.14</ele>
        <time>2017-08-23T13:39:24Z</time>
      </trkpt>
      <trkpt lat="44.99831" lon="0.718">
        <ele>174.62</ele>
        <time>2017-08-23T13:39:39Z</time>
      </trkpt>
      <trkpt lat="44.99841" lon="0.718">
        <ele>174.62</ele>
        <time>2017-08-23T13:39:50Z</time>
      </trkpt>
      <trkpt lat="44.9986" lon="0.71801">
        <ele>174.62</ele>
        <time>2017-08-23T13:40:04Z</time>
      </trkpt>
      <trkpt lat="44.99874" lon="0.71801">
        <ele>175.1</ele>
        <time>2017-08-23T13:40:17Z</time>
      </trkpt>
      <trkpt lat="44.99881" lon="0.71801">
        <ele>174.62</ele>
        <time>2017-08-23T13:40:30Z</time>
      </trkpt>
      <trkpt lat="44.99887" lon="0.71801">
        <ele>174.14</ele>
        <time>2017-08-23T13:40:44Z</time>
      </trkpt>
      <trkpt lat="44.99894" lon="0.71801">
        <ele>173.66</ele>
        <time>2017-08-23T13:41:00Z</time>
      </trkpt>
      <trkpt lat="44.99901" lon="0.71802">
        <ele>172.69</ele>
        <time>2017-08-23T13:41:14Z</time>
      </trkpt>
      <trkpt lat="44.99923" lon="0.71807">
        <ele>172.21</ele>
        <time>2017-08-23T13:41:30Z</time>
      </trkpt>
      <trkpt lat="44.99936" lon="0.71806">
        <ele>171.25</ele>
        <time>2017-08-23T13:41:44Z</time>
      </trkpt>
      <trkpt lat="44.99946" lon="0.71805">
        <ele>171.25</ele>
        <time>2017-08-23T13:41:57Z</time>
      </trkpt>
      <trkpt lat="44.99955" lon="0.71802">
        <ele>171.25</ele>
        <time>2017-08-23T13:42:12Z</time>
      </trkpt>
      <trkpt lat="44.99966" lon="0.71797">
        <ele>171.73</ele>
        <time>2017-08-23T13:42:24Z</time>
      </trkpt>
      <trkpt lat="44.99985" lon="0.71784">
        <ele>172.21</ele>
        <time>2017-08-23T13:42:37Z</time>
      </trkpt>
      <trkpt lat="44.99997" lon="0.71777">
        <ele>172.21</ele>
        <time>2017-08-23T13:42:50Z</time>
      </trkpt>
      <trkpt lat="45.00007" lon="0.7177">
        <ele>172.69</ele>
        <time>2017-08-23T13:43:03Z</time>
      </trkpt>
      <trkpt lat="45.00018" lon="0.71764">
        <ele>173.17</ele>
        <time>2017-08-23T13:43:17Z</time>
      </trkpt>
      <trkpt lat="45.00029" lon="0.71758">
        <ele>173.17</ele>
        <time>2017-08-23T13:43:33Z</time>
      </trkpt>
      <trkpt lat="45.00039" lon="0.71752">
        <ele>173.66</ele>
        <time>2017-08-23T13:43:48Z</time>
      </trkpt>
      <trkpt lat="45.00065" lon="0.71734">
        <ele>174.14</ele>
        <time>2017-08-23T13:44:00Z</time>
      </trkpt>
      <trkpt lat="45.00086" lon="0.71724">
        <ele>173.66</ele>
        <time>2017-08-23T13:44:15Z</time>
      </trkpt>
      <trkpt lat="45.00107" lon="0.71714">
        <ele>172.69</ele>
        <time>2017-08-23T13:44:29Z</time>
      </trkpt>
      <trkpt lat="45.00132" lon="0.71704">
        <ele>172.21</ele>
        <time>2017-08-23T13:44:43Z</time>
      </trkpt>
      <trkpt lat="45.00138" lon="0.71701">
        <ele>172.21</ele>
        <time>2017-08-23T13:45:00Z</time>
      </trkpt>
      <trkpt lat="45.00149" lon="0.71696">
        <ele>171.73</ele>
        <time>2017-08-23T13:45:17Z</time>
      </trkpt>
      <trkpt lat="45.00166" lon="0.71689">
        <ele>170.77</ele>
        <time>2017-08-23T13:45:31Z</time>
      </trkpt>
      <trkpt lat="45.00177" lon="0.71683">
        <ele>170.77</ele>
        <time>2017-08-23T13:45:44Z</time>
      </trkpt>
      <trkpt lat="45.00187" lon="0.71678">
        <ele>169.81</ele>
        <time>2017-08-23T13:45:57Z</time>
      </trkpt>
      <trkpt lat="45.00207" lon="0.71674">
        <ele>169.81</ele>
        <time>2017-08-23T13:46:11Z</time>
      </trkpt>
      <trkpt lat="45.00224" lon="0.71669">
        <ele>169.81</ele>
        <time>2017-08-23T13:46:26Z</time>
      </trkpt>
      <trkpt lat="45.00236" lon="0.71666">
        <ele>169.81</ele>
        <time>2017-08-23T13:46:40Z</time>
      </trkpt>
      <trkpt lat="45.00246" lon="0.71662">
        <ele>169.81</ele>
        <time>2017-08-23T13:46:52Z</time>
      </trkpt>
      <trkpt lat="45.00259" lon="0.7166">
        <ele>169.81</ele>
        <time>2017-08-23T13:47:06Z</time>
      </trkpt>
      <trkpt lat="45.00276" lon="0.71661">
        <ele>169.33</ele>
        <time>2017-08-23T13:47:21Z</time>
      </trkpt>
      <trkpt lat="45.00287" lon="0.7166">
        <ele>169.33</ele>
        <time>2017-08-23T13:47:34Z</time>
      </trkpt>
      <trkpt lat="45.00299" lon="0.71662">
        <ele>169.81</ele>
        <time>2017-08-23T13:47:49Z</time>
      </trkpt>
      <trkpt lat="45.00297" lon="0.71662">
        <ele>169.81</ele>
        <time>2017-08-23T13:48:15Z</time>
      </trkpt>
      <trkpt lat="45.00297" lon="0.71663">
        <ele>169.81</ele>
        <time>2017-08-23T13:48:47Z</time>
      </trkpt>
      <trkpt lat="45.00296" lon="0.71663">
        <ele>169.81</ele>
        <time>2017-08-23T13:49:14Z</time>
      </trkpt>
      <trkpt lat="45.00292" lon="0.71666">
        <ele>169.81</ele>
        <time>2017-08-23T13:49:27Z</time>
      </trkpt>
      <trkpt lat="45.00284" lon="0.71676">
        <ele>169.33</ele>
        <time>2017-08-23T13:49:40Z</time>
      </trkpt>
      <trkpt lat="45.00277" lon="0.71684">
        <ele>169.33</ele>
        <time>2017-08-23T13:49:48Z</time>
      </trkpt>
      <trkpt lat="45.00265" lon="0.71698">
        <ele>168.85</ele>
        <time>2017-08-23T13:50:02Z</time>
      </trkpt>
      <trkpt lat="45.00263" lon="0.71701">
        <ele>168.37</ele>
        <time>2017-08-23T13:50:04Z</time>
      </trkpt>
      <trkpt lat="45.00258" lon="0.71705">
        <ele>168.37</ele>
        <time>2017-08-23T13:50:08Z</time>
      </trkpt>
      <trkpt lat="45.00248" lon="0.71715">
        <ele>167.89</ele>
        <time>2017-08-23T13:50:19Z</time>
      </trkpt>
      <trkpt lat="45.0024" lon="0.71735">
        <ele>166.45</ele>
        <time>2017-08-23T13:50:35Z</time>
      </trkpt>
      <trkpt lat="45.00233" lon="0.71736">
        <ele>166.93</ele>
        <time>2017-08-23T13:50:49Z</time>
      </trkpt>
      <trkpt lat="45.00232" lon="0.71736">
        <ele>166.93</ele>
        <time>2017-08-23T13:50:50Z</time>
      </trkpt>
      <trkpt lat="45.00228" lon="0.71736">
        <ele>166.93</ele>
        <time>2017-08-23T13:50:54Z</time>
      </trkpt>
      <trkpt lat="45.00226" lon="0.71738">
        <ele>166.93</ele>
        <time>2017-08-23T13:50:56Z</time>
      </trkpt>
      <trkpt lat="45.00221" lon="0.71739">
        <ele>167.41</ele>
        <time>2017-08-23T13:51:00Z</time>
      </trkpt>
      <trkpt lat="45.00208" lon="0.7174">
        <ele>167.41</ele>
        <time>2017-08-23T13:51:11Z</time>
      </trkpt>
      <trkpt lat="45.00205" lon="0.71741">
        <ele>168.37</ele>
        <time>2017-08-23T13:51:35Z</time>
      </trkpt>
      <trkpt lat="45.00198" lon="0.71743">
        <ele>167.89</ele>
        <time>2017-08-23T13:51:41Z</time>
      </trkpt>
      <trkpt lat="45.00181" lon="0.71748">
        <ele>167.89</ele>
        <time>2017-08-23T13:51:55Z</time>
      </trkpt>
      <trkpt lat="45.00175" lon="0.71751">
        <ele>168.37</ele>
        <time>2017-08-23T13:52:07Z</time>
      </trkpt>
      <trkpt lat="45.00175" lon="0.71751">
        <ele>168.37</ele>
        <time>2017-08-23T13:52:10Z</time>
      </trkpt>
      <trkpt lat="45.00173" lon="0.71761">
        <ele>167.89</ele>
        <time>2017-08-23T13:52:16Z</time>
      </trkpt>
      <trkpt lat="45.00168" lon="0.71765">
        <ele>168.37</ele>
        <time>2017-08-23T13:52:21Z</time>
      </trkpt>
      <trkpt lat="45.00151" lon="0.71777">
        <ele>168.85</ele>
        <time>2017-08-23T13:52:36Z</time>
      </trkpt>
      <trkpt lat="45.00147" lon="0.71782">
        <ele>168.85</ele>
        <time>2017-08-23T13:52:41Z</time>
      </trkpt>
      <trkpt lat="45.00135" lon="0.71796">
        <ele>169.33</ele>
        <time>2017-08-23T13:52:54Z</time>
      </trkpt>
      <trkpt lat="45.00128" lon="0.71807">
        <ele>169.81</ele>
        <time>2017-08-23T13:53:03Z</time>
      </trkpt>
      <trkpt lat="45.00119" lon="0.71823">
        <ele>169.81</ele>
        <time>2017-08-23T13:53:17Z</time>
      </trkpt>
      <trkpt lat="45.0011" lon="0.71839">
        <ele>170.77</ele>
        <time>2017-08-23T13:53:30Z</time>
      </trkpt>
      <trkpt lat="45.00105" lon="0.71847">
        <ele>171.25</ele>
        <time>2017-08-23T13:53:37Z</time>
      </trkpt>
      <trkpt lat="45.00095" lon="0.71858">
        <ele>171.25</ele>
        <time>2017-08-23T13:53:50Z</time>
      </trkpt>
      <trkpt lat="45.00087" lon="0.71865">
        <ele>171.25</ele>
        <time>2017-08-23T13:54:05Z</time>
      </trkpt>
      <trkpt lat="45.00085" lon="0.7187">
        <ele>171.73</ele>
        <time>2017-08-23T13:54:17Z</time>
      </trkpt>
      <trkpt lat="45.00089" lon="0.71878">
        <ele>170.77</ele>
        <time>2017-08-23T13:54:31Z</time>
      </trkpt>
      <trkpt lat="45.0009" lon="0.71882">
        <ele>169.81</ele>
        <time>2017-08-23T13:54:35Z</time>
      </trkpt>
      <trkpt lat="45.00101" lon="0.71897">
        <ele>168.85</ele>
        <time>2017-08-23T13:54:49Z</time>
      </trkpt>
      <trkpt lat="45.00108" lon="0.71907">
        <ele>167.89</ele>
        <time>2017-08-23T13:55:01Z</time>
      </trkpt>
      <trkpt lat="45.0011" lon="0.7191">
        <ele>167.89</ele>
        <time>2017-08-23T13:55:05Z</time>
      </trkpt>
      <trkpt lat="45.00118" lon="0.71923">
        <ele>166.93</ele>
        <time>2017-08-23T13:55:16Z</time>
      </trkpt>
      <trkpt lat="45.00121" lon="0.71928">
        <ele>165.96</ele>
        <time>2017-08-23T13:55:21Z</time>
      </trkpt>
      <trkpt lat="45.00129" lon="0.71939">
        <ele>165</ele>
        <time>2017-08-23T13:55:33Z</time>
      </trkpt>
      <trkpt lat="45.00137" lon="0.71949">
        <ele>164.04</ele>
        <time>2017-08-23T13:55:47Z</time>
      </trkpt>
      <trkpt lat="45.0014" lon="0.71951">
        <ele>163.56</ele>
        <time>2017-08-23T13:55:50Z</time>
      </trkpt>
      <trkpt lat="45.00145" lon="0.71959">
        <ele>163.08</ele>
        <time>2017-08-23T13:55:58Z</time>
      </trkpt>
      <trkpt lat="45.00155" lon="0.71973">
        <ele>161.64</ele>
        <time>2017-08-23T13:56:13Z</time>
      </trkpt>
      <trkpt lat="45.00157" lon="0.71976">
        <ele>161.16</ele>
        <time>2017-08-23T13:56:16Z</time>
      </trkpt>
      <trkpt lat="45.00165" lon="0.71986">
        <ele>160.2</ele>
        <time>2017-08-23T13:56:30Z</time>
      </trkpt>
      <trkpt lat="45.00165" lon="0.71989">
        <ele>161.16</ele>
        <time>2017-08-23T13:56:49Z</time>
      </trkpt>
      <trkpt lat="45.00166" lon="0.71989">
        <ele>161.16</ele>
        <time>2017-08-23T13:57:13Z</time>
      </trkpt>
      <trkpt lat="45.00166" lon="0.71989">
        <ele>161.16</ele>
        <time>2017-08-23T13:57:32Z</time>
      </trkpt>
      <trkpt lat="45.00165" lon="0.7199">
        <ele>160.2</ele>
        <time>2017-08-23T13:57:46Z</time>
      </trkpt>
      <trkpt lat="45.00165" lon="0.7199">
        <ele>159.72</ele>
        <time>2017-08-23T13:57:50Z</time>
      </trkpt>
      <trkpt lat="45.00174" lon="0.72001">
        <ele>158.75</ele>
        <time>2017-08-23T13:58:05Z</time>
      </trkpt>
      <trkpt lat="45.00174" lon="0.72002">
        <ele>159.24</ele>
        <time>2017-08-23T13:58:25Z</time>
      </trkpt>
      <trkpt lat="45.00176" lon="0.72006">
        <ele>158.75</ele>
        <time>2017-08-23T13:58:39Z</time>
      </trkpt>
      <trkpt lat="45.00177" lon="0.72008">
        <ele>158.75</ele>
        <time>2017-08-23T13:58:43Z</time>
      </trkpt>
      <trkpt lat="45.00182" lon="0.72017">
        <ele>158.27</ele>
        <time>2017-08-23T13:58:50Z</time>
      </trkpt>
      <trkpt lat="45.00187" lon="0.72023">
        <ele>157.31</ele>
        <time>2017-08-23T13:58:57Z</time>
      </trkpt>
      <trkpt lat="45.00197" lon="0.72041">
        <ele>155.87</ele>
        <time>2017-08-23T13:59:13Z</time>
      </trkpt>
      <trkpt lat="45.00204" lon="0.72057">
        <ele>153.95</ele>
        <time>2017-08-23T13:59:28Z</time>
      </trkpt>
      <trkpt lat="45.00206" lon="0.72063">
        <ele>153.47</ele>
        <time>2017-08-23T13:59:33Z</time>
      </trkpt>
      <trkpt lat="45.0021" lon="0.72077">
        <ele>151.54</ele>
        <time>2017-08-23T13:59:49Z</time>
      </trkpt>
      <trkpt lat="45.00215" lon="0.72089">
        <ele>149.62</ele>
        <time>2017-08-23T14:00:05Z</time>
      </trkpt>
      <trkpt lat="45.00221" lon="0.721">
        <ele>148.18</ele>
        <time>2017-08-23T14:00:17Z</time>
      </trkpt>
      <trkpt lat="45.00231" lon="0.72114">
        <ele>147.7</ele>
        <time>2017-08-23T14:00:31Z</time>
      </trkpt>
      <trkpt lat="45.00239" lon="0.72122">
        <ele>146.74</ele>
        <time>2017-08-23T14:00:45Z</time>
      </trkpt>
      <trkpt lat="45.00249" lon="0.7213">
        <ele>145.78</ele>
        <time>2017-08-23T14:01:00Z</time>
      </trkpt>
      <trkpt lat="45.0025" lon="0.72133">
        <ele>145.78</ele>
        <time>2017-08-23T14:01:11Z</time>
      </trkpt>
      <trkpt lat="45.0025" lon="0.72137">
        <ele>145.78</ele>
        <time>2017-08-23T14:01:15Z</time>
      </trkpt>
      <trkpt lat="45.0025" lon="0.72145">
        <ele>146.26</ele>
        <time>2017-08-23T14:01:20Z</time>
      </trkpt>
      <trkpt lat="45.00248" lon="0.72163">
        <ele>146.26</ele>
        <time>2017-08-23T14:01:33Z</time>
      </trkpt>
      <trkpt lat="45.00246" lon="0.72182">
        <ele>146.26</ele>
        <time>2017-08-23T14:01:47Z</time>
      </trkpt>
      <trkpt lat="45.00245" lon="0.72186">
        <ele>146.74</ele>
        <time>2017-08-23T14:01:50Z</time>
      </trkpt>
      <trkpt lat="45.00244" lon="0.72191">
        <ele>146.74</ele>
        <time>2017-08-23T14:01:53Z</time>
      </trkpt>
      <trkpt lat="45.00243" lon="0.722">
        <ele>146.74</ele>
        <time>2017-08-23T14:02:00Z</time>
      </trkpt>
      <trkpt lat="45.00243" lon="0.72223">
        <ele>147.22</ele>
        <time>2017-08-23T14:02:14Z</time>
      </trkpt>
      <trkpt lat="45.00245" lon="0.72236">
        <ele>147.22</ele>
        <time>2017-08-23T14:02:24Z</time>
      </trkpt>
      <trkpt lat="45.00246" lon="0.7224">
        <ele>147.22</ele>
        <time>2017-08-23T14:02:26Z</time>
      </trkpt>
      <trkpt lat="45.00251" lon="0.72253">
        <ele>147.7</ele>
        <time>2017-08-23T14:02:36Z</time>
      </trkpt>
      <trkpt lat="45.00263" lon="0.72253">
        <ele>149.62</ele>
        <time>2017-08-23T14:02:50Z</time>
      </trkpt>
      <trkpt lat="45.00271" lon="0.7224">
        <ele>150.58</ele>
        <time>2017-08-23T14:03:05Z</time>
      </trkpt>
      <trkpt lat="45.00273" lon="0.72235">
        <ele>151.54</ele>
        <time>2017-08-23T14:03:18Z</time>
      </trkpt>
      <trkpt lat="45.00276" lon="0.72231">
        <ele>152.99</ele>
        <time>2017-08-23T14:03:32Z</time>
      </trkpt>
      <trkpt lat="45.0028" lon="0.72228">
        <ele>153.95</ele>
        <time>2017-08-23T14:03:46Z</time>
      </trkpt>
      <trkpt lat="45.00284" lon="0.72223">
        <ele>155.39</ele>
        <time>2017-08-23T14:04:01Z</time>
      </trkpt>
      <trkpt lat="45.00295" lon="0.72211">
        <ele>156.35</ele>
        <time>2017-08-23T14:04:16Z</time>
      </trkpt>
      <trkpt lat="45.00303" lon="0.72204">
        <ele>157.31</ele>
        <time>2017-08-23T14:04:30Z</time>
      </trkpt>
      <trkpt lat="45.0031" lon="0.72199">
        <ele>158.27</ele>
        <time>2017-08-23T14:04:43Z</time>
      </trkpt>
      <trkpt lat="45.00315" lon="0.72195">
        <ele>158.75</ele>
        <time>2017-08-23T14:04:55Z</time>
      </trkpt>
      <trkpt lat="45.00322" lon="0.7219">
        <ele>159.72</ele>
        <time>2017-08-23T14:05:10Z</time>
      </trkpt>
      <trkpt lat="45.00329" lon="0.72184">
        <ele>160.68</ele>
        <time>2017-08-23T14:05:23Z</time>
      </trkpt>
      <trkpt lat="45.00348" lon="0.72176">
        <ele>160.68</ele>
        <time>2017-08-23T14:05:36Z</time>
      </trkpt>
      <trkpt lat="45.00364" lon="0.72166">
        <ele>160.68</ele>
        <time>2017-08-23T14:05:49Z</time>
      </trkpt>
      <trkpt lat="45.00379" lon="0.72159">
        <ele>161.64</ele>
        <time>2017-08-23T14:06:02Z</time>
      </trkpt>
      <trkpt lat="45.00399" lon="0.72152">
        <ele>162.12</ele>
        <time>2017-08-23T14:06:14Z</time>
      </trkpt>
      <trkpt lat="45.00412" lon="0.72149">
        <ele>163.08</ele>
        <time>2017-08-23T14:06:25Z</time>
      </trkpt>
      <trkpt lat="45.00421" lon="0.72148">
        <ele>163.56</ele>
        <time>2017-08-23T14:06:32Z</time>
      </trkpt>
      <trkpt lat="45.00438" lon="0.72146">
        <ele>164.52</ele>
        <time>2017-08-23T14:06:46Z</time>
      </trkpt>
      <trkpt lat="45.0045" lon="0.72147">
        <ele>165.48</ele>
        <time>2017-08-23T14:06:59Z</time>
      </trkpt>
      <trkpt lat="45.00461" lon="0.72148">
        <ele>166.93</ele>
        <time>2017-08-23T14:07:12Z</time>
      </trkpt>
      <trkpt lat="45.00463" lon="0.72149">
        <ele>166.93</ele>
        <time>2017-08-23T14:07:14Z</time>
      </trkpt>
      <trkpt lat="45.00466" lon="0.7215">
        <ele>166.93</ele>
        <time>2017-08-23T14:07:17Z</time>
      </trkpt>
      <trkpt lat="45.00479" lon="0.72158">
        <ele>168.37</ele>
        <time>2017-08-23T14:07:31Z</time>
      </trkpt>
      <trkpt lat="45.00486" lon="0.72161">
        <ele>169.33</ele>
        <time>2017-08-23T14:07:40Z</time>
      </trkpt>
      <trkpt lat="45.0049" lon="0.72164">
        <ele>169.33</ele>
        <time>2017-08-23T14:07:54Z</time>
      </trkpt>
      <trkpt lat="45.00492" lon="0.72163">
        <ele>169.33</ele>
        <time>2017-08-23T14:08:12Z</time>
      </trkpt>
      <trkpt lat="45.00493" lon="0.7216">
        <ele>169.33</ele>
        <time>2017-08-23T14:08:44Z</time>
      </trkpt>
      <trkpt lat="45.00494" lon="0.72158">
        <ele>168.37</ele>
        <time>2017-08-23T14:08:58Z</time>
      </trkpt>
      <trkpt lat="45.00501" lon="0.72151">
        <ele>167.89</ele>
        <time>2017-08-23T14:09:09Z</time>
      </trkpt>
      <trkpt lat="45.00502" lon="0.72149">
        <ele>167.41</ele>
        <time>2017-08-23T14:09:12Z</time>
      </trkpt>
      <trkpt lat="45.00505" lon="0.72148">
        <ele>167.41</ele>
        <time>2017-08-23T14:09:14Z</time>
      </trkpt>
      <trkpt lat="45.00518" lon="0.72145">
        <ele>166.93</ele>
        <time>2017-08-23T14:09:26Z</time>
      </trkpt>
      <trkpt lat="45.00519" lon="0.72144">
        <ele>166.93</ele>
        <time>2017-08-23T14:09:27Z</time>
      </trkpt>
      <trkpt lat="45.00528" lon="0.72135">
        <ele>166.45</ele>
        <time>2017-08-23T14:09:41Z</time>
      </trkpt>
      <trkpt lat="45.00539" lon="0.72128">
        <ele>165.96</ele>
        <time>2017-08-23T14:09:55Z</time>
      </trkpt>
      <trkpt lat="45.00548" lon="0.72125">
        <ele>165.96</ele>
        <time>2017-08-23T14:10:10Z</time>
      </trkpt>
      <trkpt lat="45.00553" lon="0.72129">
        <ele>165.48</ele>
        <time>2017-08-23T14:10:23Z</time>
      </trkpt>
      <trkpt lat="45.0057" lon="0.72141">
        <ele>165.48</ele>
        <time>2017-08-23T14:10:38Z</time>
      </trkpt>
      <trkpt lat="45.00578" lon="0.72151">
        <ele>165</ele>
        <time>2017-08-23T14:10:47Z</time>
      </trkpt>
      <trkpt lat="45.00579" lon="0.72154">
        <ele>165</ele>
        <time>2017-08-23T14:10:49Z</time>
      </trkpt>
      <trkpt lat="45.00593" lon="0.72166">
        <ele>164.52</ele>
        <time>2017-08-23T14:11:03Z</time>
      </trkpt>
      <trkpt lat="45.00594" lon="0.72166">
        <ele>164.52</ele>
        <time>2017-08-23T14:11:04Z</time>
      </trkpt>
      <trkpt lat="45.00609" lon="0.72167">
        <ele>163.56</ele>
        <time>2017-08-23T14:11:20Z</time>
      </trkpt>
      <trkpt lat="45.00621" lon="0.72162">
        <ele>162.6</ele>
        <time>2017-08-23T14:11:35Z</time>
      </trkpt>
      <trkpt lat="45.00621" lon="0.72162">
        <ele>162.6</ele>
        <time>2017-08-23T14:11:45Z</time>
      </trkpt>
      <trkpt lat="45.00624" lon="0.72161">
        <ele>162.6</ele>
        <time>2017-08-23T14:11:48Z</time>
      </trkpt>
      <trkpt lat="45.00628" lon="0.72161">
        <ele>162.6</ele>
        <time>2017-08-23T14:11:51Z</time>
      </trkpt>
      <trkpt lat="45.00632" lon="0.72163">
        <ele>162.12</ele>
        <time>2017-08-23T14:11:55Z</time>
      </trkpt>
      <trkpt lat="45.00647" lon="0.72169">
        <ele>162.12</ele>
        <time>2017-08-23T14:12:10Z</time>
      </trkpt>
      <trkpt lat="45.00661" lon="0.7217">
        <ele>161.64</ele>
        <time>2017-08-23T14:12:23Z</time>
      </trkpt>
      <trkpt lat="45.00673" lon="0.7217">
        <ele>160.68</ele>
        <time>2017-08-23T14:12:37Z</time>
      </trkpt>
      <trkpt lat="45.00677" lon="0.7217">
        <ele>160.2</ele>
        <time>2017-08-23T14:12:42Z</time>
      </trkpt>
      <trkpt lat="45.00689" lon="0.72166">
        <ele>159.24</ele>
        <time>2017-08-23T14:12:57Z</time>
      </trkpt>
      <trkpt lat="45.007" lon="0.72161">
        <ele>157.79</ele>
        <time>2017-08-23T14:13:13Z</time>
      </trkpt>
      <trkpt lat="45.00715" lon="0.72152">
        <ele>156.35</ele>
        <time>2017-08-23T14:13:30Z</time>
      </trkpt>
      <trkpt lat="45.00726" lon="0.72145">
        <ele>155.39</ele>
        <time>2017-08-23T14:13:44Z</time>
      </trkpt>
      <trkpt lat="45.00731" lon="0.72142">
        <ele>154.43</ele>
        <time>2017-08-23T14:13:51Z</time>
      </trkpt>
      <trkpt lat="45.00737" lon="0.7215">
        <ele>153.95</ele>
        <time>2017-08-23T14:14:05Z</time>
      </trkpt>
      <trkpt lat="45.00729" lon="0.72161">
        <ele>154.43</ele>
        <time>2017-08-23T14:14:16Z</time>
      </trkpt>
      <trkpt lat="45.00726" lon="0.72167">
        <ele>154.91</ele>
        <time>2017-08-23T14:14:21Z</time>
      </trkpt>
      <trkpt lat="45.00724" lon="0.72171">
        <ele>154.91</ele>
        <time>2017-08-23T14:14:24Z</time>
      </trkpt>
      <trkpt lat="45.0072" lon="0.72181">
        <ele>155.39</ele>
        <time>2017-08-23T14:14:32Z</time>
      </trkpt>
      <trkpt lat="45.00716" lon="0.72196">
        <ele>156.35</ele>
        <time>2017-08-23T14:14:45Z</time>
      </trkpt>
      <trkpt lat="45.0071" lon="0.72212">
        <ele>157.31</ele>
        <time>2017-08-23T14:14:58Z</time>
      </trkpt>
      <trkpt lat="45.00708" lon="0.72219">
        <ele>157.79</ele>
        <time>2017-08-23T14:15:06Z</time>
      </trkpt>
      <trkpt lat="45.00703" lon="0.72234">
        <ele>159.24</ele>
        <time>2017-08-23T14:15:19Z</time>
      </trkpt>
      <trkpt lat="45.007" lon="0.72242">
        <ele>160.2</ele>
        <time>2017-08-23T14:15:32Z</time>
      </trkpt>
      <trkpt lat="45.007" lon="0.72244">
        <ele>161.16</ele>
        <time>2017-08-23T14:15:48Z</time>
      </trkpt>
      <trkpt lat="45.007" lon="0.72246">
        <ele>161.16</ele>
        <time>2017-08-23T14:15:56Z</time>
      </trkpt>
      <trkpt lat="45.00693" lon="0.72265">
        <ele>161.64</ele>
        <time>2017-08-23T14:16:09Z</time>
      </trkpt>
      <trkpt lat="45.0069" lon="0.72281">
        <ele>162.6</ele>
        <time>2017-08-23T14:16:21Z</time>
      </trkpt>
      <trkpt lat="45.00689" lon="0.72297">
        <ele>164.04</ele>
        <time>2017-08-23T14:16:34Z</time>
      </trkpt>
      <trkpt lat="45.00688" lon="0.72314">
        <ele>165</ele>
        <time>2017-08-23T14:16:48Z</time>
      </trkpt>
      <trkpt lat="45.00685" lon="0.72333">
        <ele>165.96</ele>
        <time>2017-08-23T14:17:01Z</time>
      </trkpt>
      <trkpt lat="45.00684" lon="0.72351">
        <ele>167.41</ele>
        <time>2017-08-23T14:17:14Z</time>
      </trkpt>
      <trkpt lat="45.00684" lon="0.72368">
        <ele>168.37</ele>
        <time>2017-08-23T14:17:26Z</time>
      </trkpt>
      <trkpt lat="45.00689" lon="0.7238">
        <ele>169.33</ele>
        <time>2017-08-23T14:17:36Z</time>
      </trkpt>
      <trkpt lat="45.0069" lon="0.72385">
        <ele>169.33</ele>
        <time>2017-08-23T14:17:39Z</time>
      </trkpt>
      <trkpt lat="45.00692" lon="0.7239">
        <ele>170.29</ele>
        <time>2017-08-23T14:17:42Z</time>
      </trkpt>
      <trkpt lat="45.00693" lon="0.72392">
        <ele>169.81</ele>
        <time>2017-08-23T14:17:44Z</time>
      </trkpt>
      <trkpt lat="45.00697" lon="0.72403">
        <ele>170.29</ele>
        <time>2017-08-23T14:17:52Z</time>
      </trkpt>
      <trkpt lat="45.00699" lon="0.72422">
        <ele>171.25</ele>
        <time>2017-08-23T14:18:06Z</time>
      </trkpt>
      <trkpt lat="45.007" lon="0.72435">
        <ele>171.73</ele>
        <time>2017-08-23T14:18:18Z</time>
      </trkpt>
      <trkpt lat="45.00699" lon="0.72449">
        <ele>172.21</ele>
        <time>2017-08-23T14:18:29Z</time>
      </trkpt>
      <trkpt lat="45.00698" lon="0.72453">
        <ele>172.21</ele>
        <time>2017-08-23T14:18:32Z</time>
      </trkpt>
      <trkpt lat="45.00699" lon="0.72461">
        <ele>172.69</ele>
        <time>2017-08-23T14:18:37Z</time>
      </trkpt>
      <trkpt lat="45.007" lon="0.72469">
        <ele>172.69</ele>
        <time>2017-08-23T14:18:42Z</time>
      </trkpt>
      <trkpt lat="45.00701" lon="0.72487">
        <ele>173.17</ele>
        <time>2017-08-23T14:18:53Z</time>
      </trkpt>
      <trkpt lat="45.00702" lon="0.72492">
        <ele>173.66</ele>
        <time>2017-08-23T14:18:57Z</time>
      </trkpt>
      <trkpt lat="45.00702" lon="0.72497">
        <ele>173.66</ele>
        <time>2017-08-23T14:19:00Z</time>
      </trkpt>
      <trkpt lat="45.00704" lon="0.7252">
        <ele>174.14</ele>
        <time>2017-08-23T14:19:13Z</time>
      </trkpt>
      <trkpt lat="45.00706" lon="0.72528">
        <ele>174.14</ele>
        <time>2017-08-23T14:19:21Z</time>
      </trkpt>
      <trkpt lat="45.00708" lon="0.72547">
        <ele>174.62</ele>
        <time>2017-08-23T14:19:34Z</time>
      </trkpt>
      <trkpt lat="45.00709" lon="0.7255">
        <ele>174.62</ele>
        <time>2017-08-23T14:19:37Z</time>
      </trkpt>
      <trkpt lat="45.0071" lon="0.72554">
        <ele>174.62</ele>
        <time>2017-08-23T14:19:40Z</time>
      </trkpt>
      <trkpt lat="45.00715" lon="0.72578">
        <ele>175.1</ele>
        <time>2017-08-23T14:19:55Z</time>
      </trkpt>
      <trkpt lat="45.00716" lon="0.72581">
        <ele>175.1</ele>
        <time>2017-08-23T14:19:57Z</time>
      </trkpt>
      <trkpt lat="45.00718" lon="0.7259">
        <ele>175.1</ele>
        <time>2017-08-23T14:20:04Z</time>
      </trkpt>
      <trkpt lat="45.00721" lon="0.72612">
        <ele>175.1</ele>
        <time>2017-08-23T14:20:19Z</time>
      </trkpt>
      <trkpt lat="45.00722" lon="0.72618">
        <ele>175.58</ele>
        <time>2017-08-23T14:20:23Z</time>
      </trkpt>
      <trkpt lat="45.00722" lon="0.72626">
        <ele>175.1</ele>
        <time>2017-08-23T14:20:28Z</time>
      </trkpt>
      <trkpt lat="45.00722" lon="0.72635">
        <ele>175.58</ele>
        <time>2017-08-23T14:20:34Z</time>
      </trkpt>
      <trkpt lat="45.00723" lon="0.72643">
        <ele>175.1</ele>
        <time>2017-08-23T14:20:39Z</time>
      </trkpt>
      <trkpt lat="45.00722" lon="0.72665">
        <ele>175.58</ele>
        <time>2017-08-23T14:20:52Z</time>
      </trkpt>
      <trkpt lat="45.00716" lon="0.72681">
        <ele>175.1</ele>
        <time>2017-08-23T14:21:05Z</time>
      </trkpt>
      <trkpt lat="45.00711" lon="0.72689">
        <ele>175.1</ele>
        <time>2017-08-23T14:21:12Z</time>
      </trkpt>
      <trkpt lat="45.00709" lon="0.72693">
        <ele>175.1</ele>
        <time>2017-08-23T14:21:15Z</time>
      </trkpt>
      <trkpt lat="45.00702" lon="0.72706">
        <ele>175.1</ele>
        <time>2017-08-23T14:21:26Z</time>
      </trkpt>
      <trkpt lat="45.00697" lon="0.72714">
        <ele>175.1</ele>
        <time>2017-08-23T14:21:33Z</time>
      </trkpt>
      <trkpt lat="45.0069" lon="0.72727">
        <ele>174.62</ele>
        <time>2017-08-23T14:21:45Z</time>
      </trkpt>
      <trkpt lat="45.00679" lon="0.72743">
        <ele>174.14</ele>
        <time>2017-08-23T14:21:59Z</time>
      </trkpt>
      <trkpt lat="45.00671" lon="0.72751">
        <ele>173.66</ele>
        <time>2017-08-23T14:22:09Z</time>
      </trkpt>
      <trkpt lat="45.00656" lon="0.72758">
        <ele>173.17</ele>
        <time>2017-08-23T14:22:23Z</time>
      </trkpt>
      <trkpt lat="45.00654" lon="0.72759">
        <ele>173.17</ele>
        <time>2017-08-23T14:22:25Z</time>
      </trkpt>
      <trkpt lat="45.00647" lon="0.72762">
        <ele>172.69</ele>
        <time>2017-08-23T14:22:33Z</time>
      </trkpt>
      <trkpt lat="45.0064" lon="0.72764">
        <ele>172.21</ele>
        <time>2017-08-23T14:22:40Z</time>
      </trkpt>
      <trkpt lat="45.00632" lon="0.72767">
        <ele>171.73</ele>
        <time>2017-08-23T14:22:48Z</time>
      </trkpt>
      <trkpt lat="45.00629" lon="0.72769">
        <ele>171.73</ele>
        <time>2017-08-23T14:22:51Z</time>
      </trkpt>
      <trkpt lat="45.00627" lon="0.72769">
        <ele>171.73</ele>
        <time>2017-08-23T14:22:53Z</time>
      </trkpt>
      <trkpt lat="45.00612" lon="0.72773">
        <ele>171.25</ele>
        <time>2017-08-23T14:23:07Z</time>
      </trkpt>
      <trkpt lat="45.00597" lon="0.72778">
        <ele>171.25</ele>
        <time>2017-08-23T14:23:19Z</time>
      </trkpt>
      <trkpt lat="45.00589" lon="0.72783">
        <ele>171.73</ele>
        <time>2017-08-23T14:23:28Z</time>
      </trkpt>
      <trkpt lat="45.00583" lon="0.72786">
        <ele>171.73</ele>
        <time>2017-08-23T14:23:34Z</time>
      </trkpt>
      <trkpt lat="45.00581" lon="0.72786">
        <ele>171.73</ele>
        <time>2017-08-23T14:23:36Z</time>
      </trkpt>
      <trkpt lat="45.00564" lon="0.72794">
        <ele>171.73</ele>
        <time>2017-08-23T14:23:51Z</time>
      </trkpt>
      <trkpt lat="45.0055" lon="0.72799">
        <ele>172.21</ele>
        <time>2017-08-23T14:24:04Z</time>
      </trkpt>
      <trkpt lat="45.00535" lon="0.72805">
        <ele>172.69</ele>
        <time>2017-08-23T14:24:18Z</time>
      </trkpt>
      <trkpt lat="45.00534" lon="0.72806">
        <ele>172.69</ele>
        <time>2017-08-23T14:24:21Z</time>
      </trkpt>
      <trkpt lat="45.0053" lon="0.72807">
        <ele>172.69</ele>
        <time>2017-08-23T14:24:29Z</time>
      </trkpt>
      <trkpt lat="45.00523" lon="0.7281">
        <ele>172.69</ele>
        <time>2017-08-23T14:24:36Z</time>
      </trkpt>
      <trkpt lat="45.00522" lon="0.72831">
        <ele>171.73</ele>
        <time>2017-08-23T14:24:52Z</time>
      </trkpt>
      <trkpt lat="45.00525" lon="0.72847">
        <ele>170.29</ele>
        <time>2017-08-23T14:25:06Z</time>
      </trkpt>
      <trkpt lat="45.00529" lon="0.72863">
        <ele>169.33</ele>
        <time>2017-08-23T14:25:19Z</time>
      </trkpt>
      <trkpt lat="45.00529" lon="0.72864">
        <ele>169.33</ele>
        <time>2017-08-23T14:25:20Z</time>
      </trkpt>
      <trkpt lat="45.00531" lon="0.72872">
        <ele>169.33</ele>
        <time>2017-08-23T14:25:27Z</time>
      </trkpt>
      <trkpt lat="45.00535" lon="0.72888">
        <ele>168.85</ele>
        <time>2017-08-23T14:25:39Z</time>
      </trkpt>
      <trkpt lat="45.00538" lon="0.72901">
        <ele>166.93</ele>
        <time>2017-08-23T14:25:52Z</time>
      </trkpt>
      <trkpt lat="45.00539" lon="0.72901">
        <ele>166.93</ele>
        <time>2017-08-23T14:26:15Z</time>
      </trkpt>
      <trkpt lat="45.00538" lon="0.72902">
        <ele>166.93</ele>
        <time>2017-08-23T14:26:37Z</time>
      </trkpt>
      <trkpt lat="45.00538" lon="0.72902">
        <ele>166.93</ele>
        <time>2017-08-23T14:26:58Z</time>
      </trkpt>
      <trkpt lat="45.00538" lon="0.72902">
        <ele>166.45</ele>
        <time>2017-08-23T14:27:16Z</time>
      </trkpt>
      <trkpt lat="45.00537" lon="0.72902">
        <ele>166.45</ele>
        <time>2017-08-23T14:27:47Z</time>
      </trkpt>
      <trkpt lat="45.00538" lon="0.72906">
        <ele>166.45</ele>
        <time>2017-08-23T14:28:10Z</time>
      </trkpt>
      <trkpt lat="45.00542" lon="0.72922">
        <ele>165.48</ele>
        <time>2017-08-23T14:28:24Z</time>
      </trkpt>
      <trkpt lat="45.00542" lon="0.72922">
        <ele>165.48</ele>
        <time>2017-08-23T14:28:42Z</time>
      </trkpt>
      <trkpt lat="45.00543" lon="0.72922">
        <ele>165.48</ele>
        <time>2017-08-23T14:28:59Z</time>
      </trkpt>
      <trkpt lat="45.00543" lon="0.72922">
        <ele>165.48</ele>
        <time>2017-08-23T14:29:17Z</time>
      </trkpt>
      <trkpt lat="45.00544" lon="0.72922">
        <ele>165.48</ele>
        <time>2017-08-23T14:29:42Z</time>
      </trkpt>
      <trkpt lat="45.00545" lon="0.72924">
        <ele>165.48</ele>
        <time>2017-08-23T14:29:44Z</time>
      </trkpt>
      <trkpt lat="45.00546" lon="0.7293">
        <ele>165</ele>
        <time>2017-08-23T14:29:59Z</time>
      </trkpt>
      <trkpt lat="45.00547" lon="0.72931">
        <ele>165.48</ele>
        <time>2017-08-23T14:30:12Z</time>
      </trkpt>
      <trkpt lat="45.00547" lon="0.72932">
        <ele>165</ele>
        <time>2017-08-23T14:30:13Z</time>
      </trkpt>
      <trkpt lat="45.0055" lon="0.72941">
        <ele>165</ele>
        <time>2017-08-23T14:30:21Z</time>
      </trkpt>
      <trkpt lat="45.00552" lon="0.72946">
        <ele>164.52</ele>
        <time>2017-08-23T14:30:24Z</time>
      </trkpt>
      <trkpt lat="45.00556" lon="0.72958">
        <ele>164.52</ele>
        <time>2017-08-23T14:30:32Z</time>
      </trkpt>
      <trkpt lat="45.00563" lon="0.72978">
        <ele>164.52</ele>
        <time>2017-08-23T14:30:48Z</time>
      </trkpt>
      <trkpt lat="45.00567" lon="0.72994">
        <ele>165</ele>
        <time>2017-08-23T14:30:59Z</time>
      </trkpt>
      <trkpt lat="45.00572" lon="0.73013">
        <ele>165</ele>
        <time>2017-08-23T14:31:12Z</time>
      </trkpt>
      <trkpt lat="45.00577" lon="0.73033">
        <ele>164.52</ele>
        <time>2017-08-23T14:31:27Z</time>
      </trkpt>
      <trkpt lat="45.00578" lon="0.73042">
        <ele>164.04</ele>
        <time>2017-08-23T14:31:32Z</time>
      </trkpt>
      <trkpt lat="45.0058" lon="0.73049">
        <ele>164.04</ele>
        <time>2017-08-23T14:31:36Z</time>
      </trkpt>
      <trkpt lat="45.00582" lon="0.73064">
        <ele>162.6</ele>
        <time>2017-08-23T14:31:50Z</time>
      </trkpt>
      <trkpt lat="45.00583" lon="0.7307">
        <ele>162.12</ele>
        <time>2017-08-23T14:31:54Z</time>
      </trkpt>
      <trkpt lat="45.00584" lon="0.7309">
        <ele>161.16</ele>
        <time>2017-08-23T14:32:08Z</time>
      </trkpt>
      <trkpt lat="45.00585" lon="0.73092">
        <ele>160.68</ele>
        <time>2017-08-23T14:32:09Z</time>
      </trkpt>
      <trkpt lat="45.00587" lon="0.73102">
        <ele>160.2</ele>
        <time>2017-08-23T14:32:17Z</time>
      </trkpt>
      <trkpt lat="45.00587" lon="0.73108">
        <ele>159.72</ele>
        <time>2017-08-23T14:32:22Z</time>
      </trkpt>
      <trkpt lat="45.00589" lon="0.73115">
        <ele>159.24</ele>
        <time>2017-08-23T14:32:28Z</time>
      </trkpt>
      <trkpt lat="45.00592" lon="0.73134">
        <ele>158.27</ele>
        <time>2017-08-23T14:32:43Z</time>
      </trkpt>
      <trkpt lat="45.00594" lon="0.73154">
        <ele>156.83</ele>
        <time>2017-08-23T14:32:57Z</time>
      </trkpt>
      <trkpt lat="45.00594" lon="0.73167">
        <ele>155.87</ele>
        <time>2017-08-23T14:33:09Z</time>
      </trkpt>
      <trkpt lat="45.00598" lon="0.73184">
        <ele>153.95</ele>
        <time>2017-08-23T14:33:28Z</time>
      </trkpt>
      <trkpt lat="45.00602" lon="0.73194">
        <ele>153.47</ele>
        <time>2017-08-23T14:33:39Z</time>
      </trkpt>
      <trkpt lat="45.00609" lon="0.73202">
        <ele>152.99</ele>
        <time>2017-08-23T14:33:47Z</time>
      </trkpt>
      <trkpt lat="45.0062" lon="0.73214">
        <ele>152.99</ele>
        <time>2017-08-23T14:34:00Z</time>
      </trkpt>
      <trkpt lat="45.00629" lon="0.73222">
        <ele>152.99</ele>
        <time>2017-08-23T14:34:10Z</time>
      </trkpt>
      <trkpt lat="45.00637" lon="0.73227">
        <ele>152.99</ele>
        <time>2017-08-23T14:34:19Z</time>
      </trkpt>
      <trkpt lat="45.00648" lon="0.73232">
        <ele>153.47</ele>
        <time>2017-08-23T14:34:31Z</time>
      </trkpt>
      <trkpt lat="45.00662" lon="0.73232">
        <ele>154.43</ele>
        <time>2017-08-23T14:34:45Z</time>
      </trkpt>
      <trkpt lat="45.00672" lon="0.73226">
        <ele>155.87</ele>
        <time>2017-08-23T14:35:00Z</time>
      </trkpt>
      <trkpt lat="45.00681" lon="0.73215">
        <ele>157.79</ele>
        <time>2017-08-23T14:35:19Z</time>
      </trkpt>
      <trkpt lat="45.00692" lon="0.73208">
        <ele>159.24</ele>
        <time>2017-08-23T14:35:34Z</time>
      </trkpt>
      <trkpt lat="45.00706" lon="0.73204">
        <ele>160.68</ele>
        <time>2017-08-23T14:35:48Z</time>
      </trkpt>
      <trkpt lat="45.00712" lon="0.73202">
        <ele>161.64</ele>
        <time>2017-08-23T14:36:04Z</time>
      </trkpt>
      <trkpt lat="45.00729" lon="0.73195">
        <ele>163.56</ele>
        <time>2017-08-23T14:36:20Z</time>
      </trkpt>
      <trkpt lat="45.00739" lon="0.73189">
        <ele>164.52</ele>
        <time>2017-08-23T14:36:34Z</time>
      </trkpt>
      <trkpt lat="45.00742" lon="0.73183">
        <ele>166.45</ele>
        <time>2017-08-23T14:36:50Z</time>
      </trkpt>
      <trkpt lat="45.00751" lon="0.73182">
        <ele>167.41</ele>
        <time>2017-08-23T14:37:06Z</time>
      </trkpt>
      <trkpt lat="45.00765" lon="0.73197">
        <ele>168.85</ele>
        <time>2017-08-23T14:37:19Z</time>
      </trkpt>
      <trkpt lat="45.00769" lon="0.73208">
        <ele>170.29</ele>
        <time>2017-08-23T14:37:33Z</time>
      </trkpt>
      <trkpt lat="45.00769" lon="0.7321">
        <ele>170.77</ele>
        <time>2017-08-23T14:37:35Z</time>
      </trkpt>
      <trkpt lat="45.00774" lon="0.73227">
        <ele>171.73</ele>
        <time>2017-08-23T14:37:51Z</time>
      </trkpt>
      <trkpt lat="45.00783" lon="0.73244">
        <ele>173.17</ele>
        <time>2017-08-23T14:38:07Z</time>
      </trkpt>
      <trkpt lat="45.00796" lon="0.73252">
        <ele>173.66</ele>
        <time>2017-08-23T14:38:21Z</time>
      </trkpt>
      <trkpt lat="45.00801" lon="0.73254">
        <ele>173.66</ele>
        <time>2017-08-23T14:38:36Z</time>
      </trkpt>
      <trkpt lat="45.00808" lon="0.73257">
        <ele>173.66</ele>
        <time>2017-08-23T14:38:54Z</time>
      </trkpt>
      <trkpt lat="45.00822" lon="0.73266">
        <ele>173.66</ele>
        <time>2017-08-23T14:39:10Z</time>
      </trkpt>
      <trkpt lat="45.0084" lon="0.73287">
        <ele>173.17</ele>
        <time>2017-08-23T14:39:28Z</time>
      </trkpt>
      <trkpt lat="45.00848" lon="0.73295">
        <ele>173.17</ele>
        <time>2017-08-23T14:39:42Z</time>
      </trkpt>
      <trkpt lat="45.00858" lon="0.73308">
        <ele>173.17</ele>
        <time>2017-08-23T14:39:57Z</time>
      </trkpt>
      <trkpt lat="45.00879" lon="0.73338">
        <ele>173.17</ele>
        <time>2017-08-23T14:40:12Z</time>
      </trkpt>
      <trkpt lat="45.00885" lon="0.73348">
        <ele>173.17</ele>
        <time>2017-08-23T14:40:28Z</time>
      </trkpt>
      <trkpt lat="45.00889" lon="0.73349">
        <ele>173.17</ele>
        <time>2017-08-23T14:40:57Z</time>
      </trkpt>
      <trkpt lat="45.00889" lon="0.73351">
        <ele>173.17</ele>
        <time>2017-08-23T14:41:22Z</time>
      </trkpt>
      <trkpt lat="45.009" lon="0.73364">
        <ele>173.17</ele>
        <time>2017-08-23T14:41:36Z</time>
      </trkpt>
      <trkpt lat="45.00903" lon="0.73369">
        <ele>173.17</ele>
        <time>2017-08-23T14:41:43Z</time>
      </trkpt>
      <trkpt lat="45.00917" lon="0.73391">
        <ele>173.17</ele>
        <time>2017-08-23T14:41:58Z</time>
      </trkpt>
      <trkpt lat="45.00922" lon="0.73398">
        <ele>173.17</ele>
        <time>2017-08-23T14:42:05Z</time>
      </trkpt>
      <trkpt lat="45.00932" lon="0.73413">
        <ele>173.17</ele>
        <time>2017-08-23T14:42:18Z</time>
      </trkpt>
      <trkpt lat="45.00933" lon="0.73416">
        <ele>173.17</ele>
        <time>2017-08-23T14:42:20Z</time>
      </trkpt>
      <trkpt lat="45.0094" lon="0.73429">
        <ele>173.17</ele>
        <time>2017-08-23T14:42:30Z</time>
      </trkpt>
      <trkpt lat="45.00942" lon="0.73434">
        <ele>173.66</ele>
        <time>2017-08-23T14:42:33Z</time>
      </trkpt>
      <trkpt lat="45.00949" lon="0.7345">
        <ele>174.62</ele>
        <time>2017-08-23T14:42:48Z</time>
      </trkpt>
      <trkpt lat="45.0095" lon="0.73451">
        <ele>174.62</ele>
        <time>2017-08-23T14:42:58Z</time>
      </trkpt>
      <trkpt lat="45.00951" lon="0.73453">
        <ele>175.1</ele>
        <time>2017-08-23T14:43:00Z</time>
      </trkpt>
      <trkpt lat="45.00963" lon="0.73462">
        <ele>176.06</ele>
        <time>2017-08-23T14:43:12Z</time>
      </trkpt>
      <trkpt lat="45.00966" lon="0.73462">
        <ele>176.54</ele>
        <time>2017-08-23T14:43:16Z</time>
      </trkpt>
      <trkpt lat="45.0098" lon="0.73462">
        <ele>177.5</ele>
        <time>2017-08-23T14:43:31Z</time>
      </trkpt>
      <trkpt lat="45.00991" lon="0.73459">
        <ele>179.42</ele>
        <time>2017-08-23T14:43:45Z</time>
      </trkpt>
      <trkpt lat="45.00999" lon="0.73459">
        <ele>179.9</ele>
        <time>2017-08-23T14:43:59Z</time>
      </trkpt>
      <trkpt lat="45.0101" lon="0.73453">
        <ele>180.38</ele>
        <time>2017-08-23T14:44:09Z</time>
      </trkpt>
      <trkpt lat="45.01021" lon="0.73449">
        <ele>180.87</ele>
        <time>2017-08-23T14:44:27Z</time>
      </trkpt>
      <trkpt lat="45.01024" lon="0.73445">
        <ele>181.35</ele>
        <time>2017-08-23T14:44:45Z</time>
      </trkpt>
      <trkpt lat="45.0103" lon="0.73438">
        <ele>181.35</ele>
        <time>2017-08-23T14:44:58Z</time>
      </trkpt>
      <trkpt lat="45.01032" lon="0.73432">
        <ele>182.31</ele>
        <time>2017-08-23T14:45:12Z</time>
      </trkpt>
      <trkpt lat="45.01042" lon="0.73428">
        <ele>182.31</ele>
        <time>2017-08-23T14:45:28Z</time>
      </trkpt>
      <trkpt lat="45.01044" lon="0.73436">
        <ele>182.31</ele>
        <time>2017-08-23T14:45:40Z</time>
      </trkpt>
      <trkpt lat="45.01045" lon="0.7344">
        <ele>181.83</ele>
        <time>2017-08-23T14:45:42Z</time>
      </trkpt>
      <trkpt lat="45.01041" lon="0.73453">
        <ele>181.83</ele>
        <time>2017-08-23T14:45:51Z</time>
      </trkpt>
      <trkpt lat="45.01038" lon="0.7346">
        <ele>181.83</ele>
        <time>2017-08-23T14:45:56Z</time>
      </trkpt>
      <trkpt lat="45.01034" lon="0.73472">
        <ele>181.83</ele>
        <time>2017-08-23T14:46:05Z</time>
      </trkpt>
      <trkpt lat="45.0103" lon="0.73488">
        <ele>181.35</ele>
        <time>2017-08-23T14:46:16Z</time>
      </trkpt>
      <trkpt lat="45.01028" lon="0.73493">
        <ele>181.83</ele>
        <time>2017-08-23T14:46:20Z</time>
      </trkpt>
      <trkpt lat="45.01025" lon="0.735">
        <ele>181.83</ele>
        <time>2017-08-23T14:46:25Z</time>
      </trkpt>
      <trkpt lat="45.01023" lon="0.73507">
        <ele>181.35</ele>
        <time>2017-08-23T14:46:30Z</time>
      </trkpt>
      <trkpt lat="45.01014" lon="0.7352">
        <ele>181.35</ele>
        <time>2017-08-23T14:46:43Z</time>
      </trkpt>
      <trkpt lat="45.01014" lon="0.73522">
        <ele>181.35</ele>
        <time>2017-08-23T14:47:04Z</time>
      </trkpt>
      <trkpt lat="45.01007" lon="0.73546">
        <ele>181.35</ele>
        <time>2017-08-23T14:47:19Z</time>
      </trkpt>
      <trkpt lat="45.01001" lon="0.73564">
        <ele>181.35</ele>
        <time>2017-08-23T14:47:32Z</time>
      </trkpt>
      <trkpt lat="45.01" lon="0.73573">
        <ele>181.35</ele>
        <time>2017-08-23T14:47:38Z</time>
      </trkpt>
      <trkpt lat="45.00996" lon="0.73585">
        <ele>181.35</ele>
        <time>2017-08-23T14:47:46Z</time>
      </trkpt>
      <trkpt lat="45.00988" lon="0.73609">
        <ele>181.83</ele>
        <time>2017-08-23T14:48:02Z</time>
      </trkpt>
      <trkpt lat="45.00982" lon="0.73625">
        <ele>182.31</ele>
        <time>2017-08-23T14:48:14Z</time>
      </trkpt>
      <trkpt lat="45.0098" lon="0.7363">
        <ele>182.31</ele>
        <time>2017-08-23T14:48:18Z</time>
      </trkpt>
      <trkpt lat="45.00973" lon="0.73649">
        <ele>182.79</ele>
        <time>2017-08-23T14:48:31Z</time>
      </trkpt>
      <trkpt lat="45.0097" lon="0.73654">
        <ele>182.79</ele>
        <time>2017-08-23T14:48:35Z</time>
      </trkpt>
      <trkpt lat="45.00964" lon="0.73674">
        <ele>183.27</ele>
        <time>2017-08-23T14:48:49Z</time>
      </trkpt>
      <trkpt lat="45.00963" lon="0.7368">
        <ele>183.27</ele>
        <time>2017-08-23T14:48:53Z</time>
      </trkpt>
      <trkpt lat="45.00961" lon="0.73684">
        <ele>183.27</ele>
        <time>2017-08-23T14:48:56Z</time>
      </trkpt>
      <trkpt lat="45.00957" lon="0.737">
        <ele>183.27</ele>
        <time>2017-08-23T14:49:07Z</time>
      </trkpt>
      <trkpt lat="45.00951" lon="0.73717">
        <ele>183.75</ele>
        <time>2017-08-23T14:49:20Z</time>
      </trkpt>
      <trkpt lat="45.0095" lon="0.73722">
        <ele>183.75</ele>
        <time>2017-08-23T14:49:23Z</time>
      </trkpt>
      <trkpt lat="45.00947" lon="0.73726">
        <ele>183.75</ele>
        <time>2017-08-23T14:49:27Z</time>
      </trkpt>
      <trkpt lat="45.00946" lon="0.73731">
        <ele>183.75</ele>
        <time>2017-08-23T14:49:30Z</time>
      </trkpt>
      <trkpt lat="45.00939" lon="0.7374">
        <ele>183.75</ele>
        <time>2017-08-23T14:49:37Z</time>
      </trkpt>
      <trkpt lat="45.00932" lon="0.73749">
        <ele>184.23</ele>
        <time>2017-08-23T14:49:45Z</time>
      </trkpt>
      <trkpt lat="45.00929" lon="0.7375">
        <ele>184.23</ele>
        <time>2017-08-23T14:49:47Z</time>
      </trkpt>
      <trkpt lat="45.00925" lon="0.73752">
        <ele>184.23</ele>
        <time>2017-08-23T14:49:51Z</time>
      </trkpt>
      <trkpt lat="45.00909" lon="0.7376">
        <ele>184.71</ele>
        <time>2017-08-23T14:50:06Z</time>
      </trkpt>
      <trkpt lat="45.00893" lon="0.73766">
        <ele>184.71</ele>
        <time>2017-08-23T14:50:20Z</time>
      </trkpt>
      <trkpt lat="45.00882" lon="0.7377">
        <ele>185.67</ele>
        <time>2017-08-23T14:50:32Z</time>
      </trkpt>
      <trkpt lat="45.0088" lon="0.73773">
        <ele>186.15</ele>
        <time>2017-08-23T14:50:35Z</time>
      </trkpt>
      <trkpt lat="45.00879" lon="0.73775">
        <ele>186.15</ele>
        <time>2017-08-23T14:50:37Z</time>
      </trkpt>
      <trkpt lat="45.00876" lon="0.73783">
        <ele>186.63</ele>
        <time>2017-08-23T14:50:45Z</time>
      </trkpt>
      <trkpt lat="45.00875" lon="0.73801">
        <ele>186.63</ele>
        <time>2017-08-23T14:50:58Z</time>
      </trkpt>
      <trkpt lat="45.00875" lon="0.7382">
        <ele>187.11</ele>
        <time>2017-08-23T14:51:13Z</time>
      </trkpt>
      <trkpt lat="45.0087" lon="0.7384">
        <ele>187.11</ele>
        <time>2017-08-23T14:51:26Z</time>
      </trkpt>
      <trkpt lat="45.00866" lon="0.73863">
        <ele>187.11</ele>
        <time>2017-08-23T14:51:40Z</time>
      </trkpt>
      <trkpt lat="45.00865" lon="0.73867">
        <ele>188.08</ele>
        <time>2017-08-23T14:51:42Z</time>
      </trkpt>
      <trkpt lat="45.00861" lon="0.73885">
        <ele>187.11</ele>
        <time>2017-08-23T14:51:53Z</time>
      </trkpt>
      <trkpt lat="45.0086" lon="0.73891">
        <ele>187.59</ele>
        <time>2017-08-23T14:51:57Z</time>
      </trkpt>
      <trkpt lat="45.00858" lon="0.73898">
        <ele>187.59</ele>
        <time>2017-08-23T14:52:01Z</time>
      </trkpt>
      <trkpt lat="45.00857" lon="0.73906">
        <ele>187.11</ele>
        <time>2017-08-23T14:52:07Z</time>
      </trkpt>
      <trkpt lat="45.00853" lon="0.73928">
        <ele>187.11</ele>
        <time>2017-08-23T14:52:22Z</time>
      </trkpt>
      <trkpt lat="45.00852" lon="0.73931">
        <ele>187.11</ele>
        <time>2017-08-23T14:52:25Z</time>
      </trkpt>
      <trkpt lat="45.00851" lon="0.73942">
        <ele>187.59</ele>
        <time>2017-08-23T14:52:33Z</time>
      </trkpt>
      <trkpt lat="45.00849" lon="0.73951">
        <ele>187.59</ele>
        <time>2017-08-23T14:52:39Z</time>
      </trkpt>
      <trkpt lat="45.00848" lon="0.7396">
        <ele>187.59</ele>
        <time>2017-08-23T14:52:46Z</time>
      </trkpt>
      <trkpt lat="45.00849" lon="0.73969">
        <ele>187.59</ele>
        <time>2017-08-23T14:52:51Z</time>
      </trkpt>
      <trkpt lat="45.00851" lon="0.73991">
        <ele>187.59</ele>
        <time>2017-08-23T14:53:04Z</time>
      </trkpt>
      <trkpt lat="45.00853" lon="0.74008">
        <ele>187.59</ele>
        <time>2017-08-23T14:53:15Z</time>
      </trkpt>
      <trkpt lat="45.00856" lon="0.74023">
        <ele>187.59</ele>
        <time>2017-08-23T14:53:28Z</time>
      </trkpt>
      <trkpt lat="45.00856" lon="0.74028">
        <ele>188.08</ele>
        <time>2017-08-23T14:53:38Z</time>
      </trkpt>
      <trkpt lat="45.00855" lon="0.74036">
        <ele>188.08</ele>
        <time>2017-08-23T14:53:55Z</time>
      </trkpt>
      <trkpt lat="45.00853" lon="0.74042">
        <ele>188.08</ele>
        <time>2017-08-23T14:54:28Z</time>
      </trkpt>
      <trkpt lat="45.00854" lon="0.74042">
        <ele>188.56</ele>
        <time>2017-08-23T14:54:49Z</time>
      </trkpt>
      <trkpt lat="45.00855" lon="0.74041">
        <ele>189.04</ele>
        <time>2017-08-23T14:55:10Z</time>
      </trkpt>
      <trkpt lat="45.00855" lon="0.74041">
        <ele>189.04</ele>
        <time>2017-08-23T14:55:11Z</time>
      </trkpt>
      <trkpt lat="45.00854" lon="0.74041">
        <ele>188.08</ele>
        <time>2017-08-23T14:55:40Z</time>
      </trkpt>
      <trkpt lat="45.00851" lon="0.74041">
        <ele>188.08</ele>
        <time>2017-08-23T14:55:56Z</time>
      </trkpt>
      <trkpt lat="45.0085" lon="0.74041">
        <ele>189.04</ele>
        <time>2017-08-23T14:56:18Z</time>
      </trkpt>
      <trkpt lat="45.0085" lon="0.74041">
        <ele>188.56</ele>
        <time>2017-08-23T14:56:20Z</time>
      </trkpt>
      <trkpt lat="45.0085" lon="0.74041">
        <ele>188.08</ele>
        <time>2017-08-23T14:56:39Z</time>
      </trkpt>
      <trkpt lat="45.00848" lon="0.74041">
        <ele>188.08</ele>
        <time>2017-08-23T14:56:42Z</time>
      </trkpt>
      <trkpt lat="45.00831" lon="0.74036">
        <ele>188.08</ele>
        <time>2017-08-23T14:56:56Z</time>
      </trkpt>
      <trkpt lat="45.00819" lon="0.74032">
        <ele>187.59</ele>
        <time>2017-08-23T14:57:07Z</time>
      </trkpt>
      <trkpt lat="45.00816" lon="0.74031">
        <ele>187.59</ele>
        <time>2017-08-23T14:57:10Z</time>
      </trkpt>
      <trkpt lat="45.00812" lon="0.74032">
        <ele>187.59</ele>
        <time>2017-08-23T14:57:13Z</time>
      </trkpt>
      <trkpt lat="45.00806" lon="0.7403">
        <ele>187.11</ele>
        <time>2017-08-23T14:57:20Z</time>
      </trkpt>
      <trkpt lat="45.00797" lon="0.74029">
        <ele>186.63</ele>
        <time>2017-08-23T14:57:29Z</time>
      </trkpt>
      <trkpt lat="45.00791" lon="0.74027">
        <ele>186.15</ele>
        <time>2017-08-23T14:57:34Z</time>
      </trkpt>
      <trkpt lat="45.00785" lon="0.74027">
        <ele>185.19</ele>
        <time>2017-08-23T14:57:44Z</time>
      </trkpt>
      <trkpt lat="45.00772" lon="0.74023">
        <ele>184.71</ele>
        <time>2017-08-23T14:57:55Z</time>
      </trkpt>
      <trkpt lat="45.00767" lon="0.74026">
        <ele>184.23</ele>
        <time>2017-08-23T14:58:08Z</time>
      </trkpt>
      <trkpt lat="45.00763" lon="0.74025">
        <ele>183.75</ele>
        <time>2017-08-23T14:58:19Z</time>
      </trkpt>
      <trkpt lat="45.00747" lon="0.7403">
        <ele>181.83</ele>
        <time>2017-08-23T14:58:34Z</time>
      </trkpt>
      <trkpt lat="45.00737" lon="0.74033">
        <ele>180.87</ele>
        <time>2017-08-23T14:58:44Z</time>
      </trkpt>
      <trkpt lat="45.00728" lon="0.74043">
        <ele>180.38</ele>
        <time>2017-08-23T14:58:55Z</time>
      </trkpt>
      <trkpt lat="45.00725" lon="0.74046">
        <ele>179.9</ele>
        <time>2017-08-23T14:58:58Z</time>
      </trkpt>
      <trkpt lat="45.00711" lon="0.74059">
        <ele>178.94</ele>
        <time>2017-08-23T14:59:14Z</time>
      </trkpt>
      <trkpt lat="45.00696" lon="0.74071">
        <ele>177.5</ele>
        <time>2017-08-23T14:59:30Z</time>
      </trkpt>
      <trkpt lat="45.00687" lon="0.74075">
        <ele>177.02</ele>
        <time>2017-08-23T14:59:39Z</time>
      </trkpt>
      <trkpt lat="45.00671" lon="0.74078">
        <ele>175.58</ele>
        <time>2017-08-23T14:59:56Z</time>
      </trkpt>
      <trkpt lat="45.00668" lon="0.74075">
        <ele>175.58</ele>
        <time>2017-08-23T15:00:00Z</time>
      </trkpt>
      <trkpt lat="45.00659" lon="0.74073">
        <ele>174.62</ele>
        <time>2017-08-23T15:00:08Z</time>
      </trkpt>
      <trkpt lat="45.00657" lon="0.74071">
        <ele>174.62</ele>
        <time>2017-08-23T15:00:10Z</time>
      </trkpt>
      <trkpt lat="45.00642" lon="0.74061">
        <ele>173.17</ele>
        <time>2017-08-23T15:00:27Z</time>
      </trkpt>
      <trkpt lat="45.00634" lon="0.74054">
        <ele>172.21</ele>
        <time>2017-08-23T15:00:38Z</time>
      </trkpt>
      <trkpt lat="45.00627" lon="0.74044">
        <ele>171.73</ele>
        <time>2017-08-23T15:00:50Z</time>
      </trkpt>
      <trkpt lat="45.00625" lon="0.74038">
        <ele>171.25</ele>
        <time>2017-08-23T15:00:56Z</time>
      </trkpt>
      <trkpt lat="45.00619" lon="0.74028">
        <ele>170.29</ele>
        <time>2017-08-23T15:01:09Z</time>
      </trkpt>
      <trkpt lat="45.00619" lon="0.74026">
        <ele>169.81</ele>
        <time>2017-08-23T15:01:10Z</time>
      </trkpt>
      <trkpt lat="45.00615" lon="0.7401">
        <ele>168.37</ele>
        <time>2017-08-23T15:01:22Z</time>
      </trkpt>
      <trkpt lat="45.00613" lon="0.73994">
        <ele>166.93</ele>
        <time>2017-08-23T15:01:34Z</time>
      </trkpt>
      <trkpt lat="45.00611" lon="0.73973">
        <ele>165.48</ele>
        <time>2017-08-23T15:01:48Z</time>
      </trkpt>
      <trkpt lat="45.0061" lon="0.73962">
        <ele>164.04</ele>
        <time>2017-08-23T15:01:57Z</time>
      </trkpt>
      <trkpt lat="45.00609" lon="0.73958">
        <ele>164.04</ele>
        <time>2017-08-23T15:02:00Z</time>
      </trkpt>
      <trkpt lat="45.00609" lon="0.73947">
        <ele>163.08</ele>
        <time>2017-08-23T15:02:08Z</time>
      </trkpt>
      <trkpt lat="45.00608" lon="0.73944">
        <ele>162.6</ele>
        <time>2017-08-23T15:02:10Z</time>
      </trkpt>
      <trkpt lat="45.00609" lon="0.7394">
        <ele>162.6</ele>
        <time>2017-08-23T15:02:14Z</time>
      </trkpt>
      <trkpt lat="45.00609" lon="0.73935">
        <ele>162.12</ele>
        <time>2017-08-23T15:02:17Z</time>
      </trkpt>
      <trkpt lat="45.00609" lon="0.73929">
        <ele>162.12</ele>
        <time>2017-08-23T15:02:21Z</time>
      </trkpt>
      <trkpt lat="45.00611" lon="0.7391">
        <ele>161.16</ele>
        <time>2017-08-23T15:02:34Z</time>
      </trkpt>
      <trkpt lat="45.00611" lon="0.73901">
        <ele>160.68</ele>
        <time>2017-08-23T15:02:39Z</time>
      </trkpt>
      <trkpt lat="45.00614" lon="0.73894">
        <ele>160.68</ele>
        <time>2017-08-23T15:02:44Z</time>
      </trkpt>
      <trkpt lat="45.00614" lon="0.73885">
        <ele>160.2</ele>
        <time>2017-08-23T15:02:50Z</time>
      </trkpt>
      <trkpt lat="45.00615" lon="0.73879">
        <ele>160.2</ele>
        <time>2017-08-23T15:02:54Z</time>
      </trkpt>
      <trkpt lat="45.00617" lon="0.73868">
        <ele>159.72</ele>
        <time>2017-08-23T15:03:01Z</time>
      </trkpt>
      <trkpt lat="45.00617" lon="0.73863">
        <ele>159.72</ele>
        <time>2017-08-23T15:03:05Z</time>
      </trkpt>
      <trkpt lat="45.0062" lon="0.73844">
        <ele>159.24</ele>
        <time>2017-08-23T15:03:19Z</time>
      </trkpt>
      <trkpt lat="45.00621" lon="0.73832">
        <ele>158.75</ele>
        <time>2017-08-23T15:03:33Z</time>
      </trkpt>
      <trkpt lat="45.00622" lon="0.73832">
        <ele>159.24</ele>
        <time>2017-08-23T15:04:05Z</time>
      </trkpt>
      <trkpt lat="45.00622" lon="0.73827">
        <ele>158.75</ele>
        <time>2017-08-23T15:04:25Z</time>
      </trkpt>
      <trkpt lat="45.00623" lon="0.73818">
        <ele>158.27</ele>
        <time>2017-08-23T15:04:34Z</time>
      </trkpt>
      <trkpt lat="45.00623" lon="0.73802">
        <ele>157.79</ele>
        <time>2017-08-23T15:04:46Z</time>
      </trkpt>
      <trkpt lat="45.00622" lon="0.73792">
        <ele>157.79</ele>
        <time>2017-08-23T15:04:51Z</time>
      </trkpt>
      <trkpt lat="45.00617" lon="0.7377">
        <ele>157.31</ele>
        <time>2017-08-23T15:05:05Z</time>
      </trkpt>
      <trkpt lat="45.00606" lon="0.73758">
        <ele>156.83</ele>
        <time>2017-08-23T15:05:18Z</time>
      </trkpt>
      <trkpt lat="45.006" lon="0.73751">
        <ele>156.83</ele>
        <time>2017-08-23T15:05:25Z</time>
      </trkpt>
      <trkpt lat="45.00596" lon="0.73746">
        <ele>156.83</ele>
        <time>2017-08-23T15:05:29Z</time>
      </trkpt>
      <trkpt lat="45.00588" lon="0.73737">
        <ele>157.31</ele>
        <time>2017-08-23T15:05:38Z</time>
      </trkpt>
      <trkpt lat="45.00577" lon="0.73727">
        <ele>157.79</ele>
        <time>2017-08-23T15:05:49Z</time>
      </trkpt>
      <trkpt lat="45.00575" lon="0.73724">
        <ele>157.79</ele>
        <time>2017-08-23T15:05:52Z</time>
      </trkpt>
      <trkpt lat="45.00564" lon="0.7371">
        <ele>159.72</ele>
        <time>2017-08-23T15:06:08Z</time>
      </trkpt>
      <trkpt lat="45.00563" lon="0.73708">
        <ele>160.2</ele>
        <time>2017-08-23T15:06:10Z</time>
      </trkpt>
      <trkpt lat="45.00561" lon="0.73706">
        <ele>160.2</ele>
        <time>2017-08-23T15:06:12Z</time>
      </trkpt>
      <trkpt lat="45.00552" lon="0.73698">
        <ele>161.64</ele>
        <time>2017-08-23T15:06:25Z</time>
      </trkpt>
      <trkpt lat="45.00549" lon="0.73697">
        <ele>161.64</ele>
        <time>2017-08-23T15:06:28Z</time>
      </trkpt>
      <trkpt lat="45.00542" lon="0.73694">
        <ele>162.6</ele>
        <time>2017-08-23T15:06:36Z</time>
      </trkpt>
      <trkpt lat="45.00538" lon="0.73691">
        <ele>163.08</ele>
        <time>2017-08-23T15:06:39Z</time>
      </trkpt>
      <trkpt lat="45.00537" lon="0.7369">
        <ele>163.08</ele>
        <time>2017-08-23T15:06:41Z</time>
      </trkpt>
      <trkpt lat="45.00533" lon="0.73688">
        <ele>163.56</ele>
        <time>2017-08-23T15:06:45Z</time>
      </trkpt>
      <trkpt lat="45.0053" lon="0.73687">
        <ele>163.56</ele>
        <time>2017-08-23T15:06:47Z</time>
      </trkpt>
      <trkpt lat="45.00525" lon="0.73684">
        <ele>164.04</ele>
        <time>2017-08-23T15:06:52Z</time>
      </trkpt>
      <trkpt lat="45.00523" lon="0.73682">
        <ele>164.04</ele>
        <time>2017-08-23T15:06:54Z</time>
      </trkpt>
      <trkpt lat="45.00515" lon="0.73684">
        <ele>164.52</ele>
        <time>2017-08-23T15:07:06Z</time>
      </trkpt>
      <trkpt lat="45.00508" lon="0.73679">
        <ele>164.52</ele>
        <time>2017-08-23T15:07:13Z</time>
      </trkpt>
      <trkpt lat="45.00501" lon="0.73675">
        <ele>164.52</ele>
        <time>2017-08-23T15:07:19Z</time>
      </trkpt>
      <trkpt lat="45.00494" lon="0.7367">
        <ele>165</ele>
        <time>2017-08-23T15:07:25Z</time>
      </trkpt>
      <trkpt lat="45.00491" lon="0.73669">
        <ele>165</ele>
        <time>2017-08-23T15:07:28Z</time>
      </trkpt>
      <trkpt lat="45.00488" lon="0.73668">
        <ele>165</ele>
        <time>2017-08-23T15:07:31Z</time>
      </trkpt>
      <trkpt lat="45.00475" lon="0.73659">
        <ele>166.93</ele>
        <time>2017-08-23T15:07:44Z</time>
      </trkpt>
      <trkpt lat="45.00467" lon="0.73651">
        <ele>166.93</ele>
        <time>2017-08-23T15:07:54Z</time>
      </trkpt>
      <trkpt lat="45.00462" lon="0.73647">
        <ele>167.89</ele>
        <time>2017-08-23T15:08:00Z</time>
      </trkpt>
      <trkpt lat="45.00454" lon="0.73644">
        <ele>168.37</ele>
        <time>2017-08-23T15:08:13Z</time>
      </trkpt>
      <trkpt lat="45.00455" lon="0.73644">
        <ele>168.85</ele>
        <time>2017-08-23T15:08:43Z</time>
      </trkpt>
      <trkpt lat="45.00453" lon="0.73644">
        <ele>168.85</ele>
        <time>2017-08-23T15:08:54Z</time>
      </trkpt>
      <trkpt lat="45.00448" lon="0.73641">
        <ele>169.81</ele>
        <time>2017-08-23T15:09:00Z</time>
      </trkpt>
      <trkpt lat="45.00435" lon="0.73634">
        <ele>170.29</ele>
        <time>2017-08-23T15:09:13Z</time>
      </trkpt>
      <trkpt lat="45.00433" lon="0.73632">
        <ele>170.77</ele>
        <time>2017-08-23T15:09:18Z</time>
      </trkpt>
      <trkpt lat="45.00417" lon="0.73622">
        <ele>171.73</ele>
        <time>2017-08-23T15:09:32Z</time>
      </trkpt>
      <trkpt lat="45.00409" lon="0.73614">
        <ele>171.73</ele>
        <time>2017-08-23T15:09:41Z</time>
      </trkpt>
      <trkpt lat="45.00402" lon="0.73609">
        <ele>171.73</ele>
        <time>2017-08-23T15:09:46Z</time>
      </trkpt>
      <trkpt lat="45.0039" lon="0.73599">
        <ele>172.21</ele>
        <time>2017-08-23T15:10:00Z</time>
      </trkpt>
      <trkpt lat="45.00387" lon="0.73596">
        <ele>172.21</ele>
        <time>2017-08-23T15:10:06Z</time>
      </trkpt>
      <trkpt lat="45.00377" lon="0.73589">
        <ele>171.73</ele>
        <time>2017-08-23T15:10:15Z</time>
      </trkpt>
      <trkpt lat="45.00374" lon="0.73588">
        <ele>171.73</ele>
        <time>2017-08-23T15:10:18Z</time>
      </trkpt>
      <trkpt lat="45.00369" lon="0.73584">
        <ele>171.73</ele>
        <time>2017-08-23T15:10:24Z</time>
      </trkpt>
      <trkpt lat="45.00354" lon="0.73573">
        <ele>172.21</ele>
        <time>2017-08-23T15:10:39Z</time>
      </trkpt>
      <trkpt lat="45.0035" lon="0.7357">
        <ele>172.21</ele>
        <time>2017-08-23T15:10:44Z</time>
      </trkpt>
      <trkpt lat="45.00347" lon="0.73567">
        <ele>172.21</ele>
        <time>2017-08-23T15:10:47Z</time>
      </trkpt>
      <trkpt lat="45.00343" lon="0.73563">
        <ele>172.69</ele>
        <time>2017-08-23T15:10:52Z</time>
      </trkpt>
      <trkpt lat="45.00339" lon="0.73559">
        <ele>172.69</ele>
        <time>2017-08-23T15:10:57Z</time>
      </trkpt>
      <trkpt lat="45.00328" lon="0.73549">
        <ele>173.66</ele>
        <time>2017-08-23T15:11:10Z</time>
      </trkpt>
      <trkpt lat="45.00321" lon="0.73542">
        <ele>174.62</ele>
        <time>2017-08-23T15:11:20Z</time>
      </trkpt>
      <trkpt lat="45.00319" lon="0.73541">
        <ele>174.62</ele>
        <time>2017-08-23T15:11:22Z</time>
      </trkpt>
      <trkpt lat="45.0031" lon="0.73536">
        <ele>175.58</ele>
        <time>2017-08-23T15:11:36Z</time>
      </trkpt>
      <trkpt lat="45.00305" lon="0.73532">
        <ele>176.06</ele>
        <time>2017-08-23T15:11:42Z</time>
      </trkpt>
      <trkpt lat="45.00288" lon="0.73518">
        <ele>176.54</ele>
        <time>2017-08-23T15:11:54Z</time>
      </trkpt>
      <trkpt lat="45.00279" lon="0.7351">
        <ele>177.5</ele>
        <time>2017-08-23T15:12:04Z</time>
      </trkpt>
      <trkpt lat="45.00273" lon="0.73504">
        <ele>177.5</ele>
        <time>2017-08-23T15:12:10Z</time>
      </trkpt>
      <trkpt lat="45.00265" lon="0.73499">
        <ele>177.5</ele>
        <time>2017-08-23T15:12:17Z</time>
      </trkpt>
      <trkpt lat="45.00256" lon="0.73494">
        <ele>177.98</ele>
        <time>2017-08-23T15:12:28Z</time>
      </trkpt>
      <trkpt lat="45.00245" lon="0.7349">
        <ele>177.98</ele>
        <time>2017-08-23T15:12:40Z</time>
      </trkpt>
      <trkpt lat="45.00233" lon="0.73483">
        <ele>178.46</ele>
        <time>2017-08-23T15:12:54Z</time>
      </trkpt>
      <trkpt lat="45.00227" lon="0.73485">
        <ele>178.46</ele>
        <time>2017-08-23T15:13:06Z</time>
      </trkpt>
      <trkpt lat="45.00223" lon="0.73483">
        <ele>178.46</ele>
        <time>2017-08-23T15:13:20Z</time>
      </trkpt>
      <trkpt lat="45.00221" lon="0.73486">
        <ele>178.46</ele>
        <time>2017-08-23T15:13:42Z</time>
      </trkpt>
      <trkpt lat="45.00219" lon="0.73486">
        <ele>178.46</ele>
        <time>2017-08-23T15:14:01Z</time>
      </trkpt>
      <trkpt lat="45.00216" lon="0.73483">
        <ele>178.46</ele>
        <time>2017-08-23T15:14:23Z</time>
      </trkpt>
      <trkpt lat="45.00216" lon="0.73481">
        <ele>178.46</ele>
        <time>2017-08-23T15:14:50Z</time>
      </trkpt>
      <trkpt lat="45.00215" lon="0.7348">
        <ele>178.46</ele>
        <time>2017-08-23T15:14:56Z</time>
      </trkpt>
      <trkpt lat="45.00214" lon="0.73477">
        <ele>177.98</ele>
        <time>2017-08-23T15:15:12Z</time>
      </trkpt>
      <trkpt lat="45.00216" lon="0.73479">
        <ele>177.98</ele>
        <time>2017-08-23T15:15:45Z</time>
      </trkpt>
      <trkpt lat="45.00216" lon="0.73479">
        <ele>177.98</ele>
        <time>2017-08-23T15:16:17Z</time>
      </trkpt>
      <trkpt lat="45.00215" lon="0.73479">
        <ele>177.98</ele>
        <time>2017-08-23T15:16:42Z</time>
      </trkpt>
      <trkpt lat="45.00215" lon="0.73479">
        <ele>178.46</ele>
        <time>2017-08-23T15:17:05Z</time>
      </trkpt>
      <trkpt lat="45.00219" lon="0.73475">
        <ele>178.46</ele>
        <time>2017-08-23T15:17:19Z</time>
      </trkpt>
      <trkpt lat="45.00224" lon="0.73469">
        <ele>178.46</ele>
        <time>2017-08-23T15:17:26Z</time>
      </trkpt>
      <trkpt lat="45.00229" lon="0.73451">
        <ele>177.98</ele>
        <time>2017-08-23T15:17:39Z</time>
      </trkpt>
      <trkpt lat="45.0023" lon="0.73449">
        <ele>177.98</ele>
        <time>2017-08-23T15:17:41Z</time>
      </trkpt>
      <trkpt lat="45.00234" lon="0.73441">
        <ele>177.5</ele>
        <time>2017-08-23T15:17:47Z</time>
      </trkpt>
      <trkpt lat="45.00244" lon="0.73416">
        <ele>177.02</ele>
        <time>2017-08-23T15:18:03Z</time>
      </trkpt>
      <trkpt lat="45.00249" lon="0.734">
        <ele>176.54</ele>
        <time>2017-08-23T15:18:14Z</time>
      </trkpt>
      <trkpt lat="45.00252" lon="0.73386">
        <ele>176.54</ele>
        <time>2017-08-23T15:18:23Z</time>
      </trkpt>
      <trkpt lat="45.00257" lon="0.73369">
        <ele>174.62</ele>
        <time>2017-08-23T15:18:36Z</time>
      </trkpt>
      <trkpt lat="45.0026" lon="0.73351">
        <ele>173.66</ele>
        <time>2017-08-23T15:18:49Z</time>
      </trkpt>
      <trkpt lat="45.00262" lon="0.7334">
        <ele>173.66</ele>
        <time>2017-08-23T15:18:56Z</time>
      </trkpt>
      <trkpt lat="45.00269" lon="0.7332">
        <ele>173.66</ele>
        <time>2017-08-23T15:19:10Z</time>
      </trkpt>
      <trkpt lat="45.00271" lon="0.73315">
        <ele>173.17</ele>
        <time>2017-08-23T15:19:16Z</time>
      </trkpt>
      <trkpt lat="45.00272" lon="0.73308">
        <ele>173.17</ele>
        <time>2017-08-23T15:19:28Z</time>
      </trkpt>
      <trkpt lat="45.00277" lon="0.73299">
        <ele>173.17</ele>
        <time>2017-08-23T15:19:39Z</time>
      </trkpt>
      <trkpt lat="45.00279" lon="0.73295">
        <ele>173.17</ele>
        <time>2017-08-23T15:19:42Z</time>
      </trkpt>
      <trkpt lat="45.00288" lon="0.73278">
        <ele>173.17</ele>
        <time>2017-08-23T15:19:56Z</time>
      </trkpt>
      <trkpt lat="45.00292" lon="0.73271">
        <ele>173.17</ele>
        <time>2017-08-23T15:20:01Z</time>
      </trkpt>
      <trkpt lat="45.00297" lon="0.7326">
        <ele>173.17</ele>
        <time>2017-08-23T15:20:07Z</time>
      </trkpt>
      <trkpt lat="45.00302" lon="0.7325">
        <ele>173.66</ele>
        <time>2017-08-23T15:20:16Z</time>
      </trkpt>
      <trkpt lat="45.0031" lon="0.73234">
        <ele>174.14</ele>
        <time>2017-08-23T15:20:28Z</time>
      </trkpt>
      <trkpt lat="45.00315" lon="0.73223">
        <ele>174.14</ele>
        <time>2017-08-23T15:20:36Z</time>
      </trkpt>
      <trkpt lat="45.00322" lon="0.73209">
        <ele>174.62</ele>
        <time>2017-08-23T15:20:45Z</time>
      </trkpt>
      <trkpt lat="45.00325" lon="0.73202">
        <ele>175.1</ele>
        <time>2017-08-23T15:20:50Z</time>
      </trkpt>
      <trkpt lat="45.00336" lon="0.73183">
        <ele>175.1</ele>
        <time>2017-08-23T15:21:04Z</time>
      </trkpt>
      <trkpt lat="45.00344" lon="0.73161">
        <ele>175.58</ele>
        <time>2017-08-23T15:21:18Z</time>
      </trkpt>
      <trkpt lat="45.00346" lon="0.73139">
        <ele>175.58</ele>
        <time>2017-08-23T15:21:31Z</time>
      </trkpt>
      <trkpt lat="45.00348" lon="0.73118">
        <ele>175.58</ele>
        <time>2017-08-23T15:21:45Z</time>
      </trkpt>
      <trkpt lat="45.00349" lon="0.73102">
        <ele>175.1</ele>
        <time>2017-08-23T15:21:55Z</time>
      </trkpt>
      <trkpt lat="45.00349" lon="0.73097">
        <ele>175.1</ele>
        <time>2017-08-23T15:21:58Z</time>
      </trkpt>
      <trkpt lat="45.00348" lon="0.73092">
        <ele>175.1</ele>
        <time>2017-08-23T15:22:01Z</time>
      </trkpt>
      <trkpt lat="45.00349" lon="0.73075">
        <ele>175.1</ele>
        <time>2017-08-23T15:22:14Z</time>
      </trkpt>
      <trkpt lat="45.00352" lon="0.73059">
        <ele>175.1</ele>
        <time>2017-08-23T15:22:26Z</time>
      </trkpt>
      <trkpt lat="45.00351" lon="0.73034">
        <ele>175.58</ele>
        <time>2017-08-23T15:22:39Z</time>
      </trkpt>
      <trkpt lat="45.00352" lon="0.7303">
        <ele>175.58</ele>
        <time>2017-08-23T15:22:41Z</time>
      </trkpt>
      <trkpt lat="45.00353" lon="0.73011">
        <ele>175.58</ele>
        <time>2017-08-23T15:22:51Z</time>
      </trkpt>
      <trkpt lat="45.00358" lon="0.72996">
        <ele>175.58</ele>
        <time>2017-08-23T15:23:00Z</time>
      </trkpt>
      <trkpt lat="45.00364" lon="0.72972">
        <ele>176.06</ele>
        <time>2017-08-23T15:23:16Z</time>
      </trkpt>
      <trkpt lat="45.00368" lon="0.72953">
        <ele>176.06</ele>
        <time>2017-08-23T15:23:30Z</time>
      </trkpt>
      <trkpt lat="45.00366" lon="0.72949">
        <ele>176.54</ele>
        <time>2017-08-23T15:23:35Z</time>
      </trkpt>
      <trkpt lat="45.00353" lon="0.72937">
        <ele>176.06</ele>
        <time>2017-08-23T15:23:49Z</time>
      </trkpt>
      <trkpt lat="45.00342" lon="0.72924">
        <ele>176.06</ele>
        <time>2017-08-23T15:24:00Z</time>
      </trkpt>
      <trkpt lat="45.00332" lon="0.72912">
        <ele>175.1</ele>
        <time>2017-08-23T15:24:13Z</time>
      </trkpt>
      <trkpt lat="45.00331" lon="0.72911">
        <ele>175.1</ele>
        <time>2017-08-23T15:24:15Z</time>
      </trkpt>
      <trkpt lat="45.00322" lon="0.72902">
        <ele>174.14</ele>
        <time>2017-08-23T15:24:28Z</time>
      </trkpt>
      <trkpt lat="45.00321" lon="0.729">
        <ele>174.14</ele>
        <time>2017-08-23T15:24:29Z</time>
      </trkpt>
      <trkpt lat="45.00319" lon="0.72897">
        <ele>173.66</ele>
        <time>2017-08-23T15:24:33Z</time>
      </trkpt>
      <trkpt lat="45.00317" lon="0.72894">
        <ele>173.17</ele>
        <time>2017-08-23T15:24:37Z</time>
      </trkpt>
      <trkpt lat="45.00309" lon="0.72877">
        <ele>171.73</ele>
        <time>2017-08-23T15:24:52Z</time>
      </trkpt>
      <trkpt lat="45.00304" lon="0.72863">
        <ele>170.29</ele>
        <time>2017-08-23T15:25:05Z</time>
      </trkpt>
      <trkpt lat="45.00299" lon="0.72854">
        <ele>169.33</ele>
        <time>2017-08-23T15:25:16Z</time>
      </trkpt>
      <trkpt lat="45.00294" lon="0.72854">
        <ele>167.89</ele>
        <time>2017-08-23T15:25:27Z</time>
      </trkpt>
      <trkpt lat="45.00291" lon="0.72852">
        <ele>167.89</ele>
        <time>2017-08-23T15:25:30Z</time>
      </trkpt>
      <trkpt lat="45.00279" lon="0.72849">
        <ele>166.93</ele>
        <time>2017-08-23T15:25:44Z</time>
      </trkpt>
      <trkpt lat="45.0027" lon="0.72844">
        <ele>165.96</ele>
        <time>2017-08-23T15:25:55Z</time>
      </trkpt>
      <trkpt lat="45.00263" lon="0.72839">
        <ele>165</ele>
        <time>2017-08-23T15:26:07Z</time>
      </trkpt>
      <trkpt lat="45.00256" lon="0.72835">
        <ele>164.52</ele>
        <time>2017-08-23T15:26:22Z</time>
      </trkpt>
      <trkpt lat="45.00251" lon="0.7283">
        <ele>164.52</ele>
        <time>2017-08-23T15:26:48Z</time>
      </trkpt>
      <trkpt lat="45.00245" lon="0.72827">
        <ele>163.56</ele>
        <time>2017-08-23T15:26:59Z</time>
      </trkpt>
      <trkpt lat="45.00241" lon="0.72823">
        <ele>162.12</ele>
        <time>2017-08-23T15:27:11Z</time>
      </trkpt>
      <trkpt lat="45.00228" lon="0.72815">
        <ele>160.68</ele>
        <time>2017-08-23T15:27:26Z</time>
      </trkpt>
      <trkpt lat="45.00211" lon="0.72805">
        <ele>159.72</ele>
        <time>2017-08-23T15:27:39Z</time>
      </trkpt>
      <trkpt lat="45.00198" lon="0.728">
        <ele>158.75</ele>
        <time>2017-08-23T15:27:52Z</time>
      </trkpt>
      <trkpt lat="45.00183" lon="0.72795">
        <ele>157.31</ele>
        <time>2017-08-23T15:28:04Z</time>
      </trkpt>
      <trkpt lat="45.00177" lon="0.72795">
        <ele>156.83</ele>
        <time>2017-08-23T15:28:10Z</time>
      </trkpt>
      <trkpt lat="45.0017" lon="0.72799">
        <ele>156.35</ele>
        <time>2017-08-23T15:28:17Z</time>
      </trkpt>
      <trkpt lat="45.00157" lon="0.72802">
        <ele>155.87</ele>
        <time>2017-08-23T15:28:31Z</time>
      </trkpt>
      <trkpt lat="45.00148" lon="0.72807">
        <ele>155.87</ele>
        <time>2017-08-23T15:28:48Z</time>
      </trkpt>
      <trkpt lat="45.00136" lon="0.72822">
        <ele>155.39</ele>
        <time>2017-08-23T15:29:01Z</time>
      </trkpt>
      <trkpt lat="45.00129" lon="0.72833">
        <ele>155.39</ele>
        <time>2017-08-23T15:29:10Z</time>
      </trkpt>
      <trkpt lat="45.00127" lon="0.72838">
        <ele>155.39</ele>
        <time>2017-08-23T15:29:13Z</time>
      </trkpt>
      <trkpt lat="45.00123" lon="0.72844">
        <ele>155.39</ele>
        <time>2017-08-23T15:29:19Z</time>
      </trkpt>
      <trkpt lat="45.00121" lon="0.72848">
        <ele>155.39</ele>
        <time>2017-08-23T15:29:22Z</time>
      </trkpt>
      <trkpt lat="45.00112" lon="0.72864">
        <ele>155.39</ele>
        <time>2017-08-23T15:29:34Z</time>
      </trkpt>
      <trkpt lat="45.00107" lon="0.72872">
        <ele>155.39</ele>
        <time>2017-08-23T15:29:41Z</time>
      </trkpt>
      <trkpt lat="45.00106" lon="0.72874">
        <ele>155.39</ele>
        <time>2017-08-23T15:29:43Z</time>
      </trkpt>
      <trkpt lat="45.00104" lon="0.72876">
        <ele>155.39</ele>
        <time>2017-08-23T15:29:46Z</time>
      </trkpt>
      <trkpt lat="45.00095" lon="0.7288">
        <ele>155.87</ele>
        <time>2017-08-23T15:30:01Z</time>
      </trkpt>
      <trkpt lat="45.00087" lon="0.72879">
        <ele>155.87</ele>
        <time>2017-08-23T15:30:09Z</time>
      </trkpt>
      <trkpt lat="45.00085" lon="0.72878">
        <ele>155.87</ele>
        <time>2017-08-23T15:30:12Z</time>
      </trkpt>
      <trkpt lat="45.00082" lon="0.72878">
        <ele>156.35</ele>
        <time>2017-08-23T15:30:15Z</time>
      </trkpt>
      <trkpt lat="45.00067" lon="0.72875">
        <ele>156.83</ele>
        <time>2017-08-23T15:30:31Z</time>
      </trkpt>
      <trkpt lat="45.00065" lon="0.72874">
        <ele>156.83</ele>
        <time>2017-08-23T15:30:33Z</time>
      </trkpt>
      <trkpt lat="45.00053" lon="0.72873">
        <ele>158.27</ele>
        <time>2017-08-23T15:30:46Z</time>
      </trkpt>
      <trkpt lat="45.00046" lon="0.72873">
        <ele>158.75</ele>
        <time>2017-08-23T15:30:54Z</time>
      </trkpt>
      <trkpt lat="45.00033" lon="0.72872">
        <ele>160.2</ele>
        <time>2017-08-23T15:31:07Z</time>
      </trkpt>
      <trkpt lat="45.00022" lon="0.72871">
        <ele>161.16</ele>
        <time>2017-08-23T15:31:21Z</time>
      </trkpt>
      <trkpt lat="45.00018" lon="0.7287">
        <ele>161.64</ele>
        <time>2017-08-23T15:31:35Z</time>
      </trkpt>
      <trkpt lat="45.00017" lon="0.7287">
        <ele>161.64</ele>
        <time>2017-08-23T15:31:48Z</time>
      </trkpt>
      <trkpt lat="45.00004" lon="0.72867">
        <ele>162.12</ele>
        <time>2017-08-23T15:32:01Z</time>
      </trkpt>
      <trkpt lat="45.00001" lon="0.72866">
        <ele>162.6</ele>
        <time>2017-08-23T15:32:04Z</time>
      </trkpt>
      <trkpt lat="44.99989" lon="0.72861">
        <ele>163.08</ele>
        <time>2017-08-23T15:32:14Z</time>
      </trkpt>
      <trkpt lat="44.99982" lon="0.72859">
        <ele>163.56</ele>
        <time>2017-08-23T15:32:20Z</time>
      </trkpt>
      <trkpt lat="44.99969" lon="0.72856">
        <ele>164.52</ele>
        <time>2017-08-23T15:32:33Z</time>
      </trkpt>
      <trkpt lat="44.99954" lon="0.72851">
        <ele>165.96</ele>
        <time>2017-08-23T15:32:48Z</time>
      </trkpt>
      <trkpt lat="44.99947" lon="0.72851">
        <ele>165.96</ele>
        <time>2017-08-23T15:32:55Z</time>
      </trkpt>
      <trkpt lat="44.99943" lon="0.7285">
        <ele>166.45</ele>
        <time>2017-08-23T15:32:58Z</time>
      </trkpt>
      <trkpt lat="44.99936" lon="0.72848">
        <ele>166.93</ele>
        <time>2017-08-23T15:33:06Z</time>
      </trkpt>
      <trkpt lat="44.99931" lon="0.72847">
        <ele>167.41</ele>
        <time>2017-08-23T15:33:11Z</time>
      </trkpt>
      <trkpt lat="44.99929" lon="0.72846">
        <ele>167.89</ele>
        <time>2017-08-23T15:33:14Z</time>
      </trkpt>
      <trkpt lat="44.99917" lon="0.72843">
        <ele>168.85</ele>
        <time>2017-08-23T15:33:27Z</time>
      </trkpt>
      <trkpt lat="44.99908" lon="0.72838">
        <ele>169.81</ele>
        <time>2017-08-23T15:33:36Z</time>
      </trkpt>
      <trkpt lat="44.999" lon="0.72835">
        <ele>170.29</ele>
        <time>2017-08-23T15:33:44Z</time>
      </trkpt>
      <trkpt lat="44.99895" lon="0.72834">
        <ele>170.77</ele>
        <time>2017-08-23T15:33:50Z</time>
      </trkpt>
      <trkpt lat="44.99887" lon="0.72832">
        <ele>170.77</ele>
        <time>2017-08-23T15:33:58Z</time>
      </trkpt>
      <trkpt lat="44.99883" lon="0.72832">
        <ele>171.25</ele>
        <time>2017-08-23T15:34:02Z</time>
      </trkpt>
      <trkpt lat="44.9988" lon="0.72832">
        <ele>171.73</ele>
        <time>2017-08-23T15:34:05Z</time>
      </trkpt>
      <trkpt lat="44.99866" lon="0.7283">
        <ele>172.21</ele>
        <time>2017-08-23T15:34:18Z</time>
      </trkpt>
      <trkpt lat="44.99851" lon="0.72828">
        <ele>173.17</ele>
        <time>2017-08-23T15:34:33Z</time>
      </trkpt>
      <trkpt lat="44.99847" lon="0.72827">
        <ele>173.66</ele>
        <time>2017-08-23T15:34:37Z</time>
      </trkpt>
      <trkpt lat="44.9983" lon="0.72821">
        <ele>174.62</ele>
        <time>2017-08-23T15:34:53Z</time>
      </trkpt>
      <trkpt lat="44.9982" lon="0.72816">
        <ele>175.58</ele>
        <time>2017-08-23T15:35:03Z</time>
      </trkpt>
      <trkpt lat="44.99807" lon="0.72807">
        <ele>177.02</ele>
        <time>2017-08-23T15:35:17Z</time>
      </trkpt>
      <trkpt lat="44.99797" lon="0.728">
        <ele>177.5</ele>
        <time>2017-08-23T15:35:27Z</time>
      </trkpt>
      <trkpt lat="44.99793" lon="0.72795">
        <ele>177.98</ele>
        <time>2017-08-23T15:35:32Z</time>
      </trkpt>
      <trkpt lat="44.9979" lon="0.72792">
        <ele>177.98</ele>
        <time>2017-08-23T15:35:36Z</time>
      </trkpt>
      <trkpt lat="44.99788" lon="0.72787">
        <ele>178.94</ele>
        <time>2017-08-23T15:35:52Z</time>
      </trkpt>
      <trkpt lat="44.99787" lon="0.72788">
        <ele>178.46</ele>
        <time>2017-08-23T15:36:22Z</time>
      </trkpt>
      <trkpt lat="44.99787" lon="0.72788">
        <ele>178.94</ele>
        <time>2017-08-23T15:36:40Z</time>
      </trkpt>
      <trkpt lat="44.99787" lon="0.72789">
        <ele>178.94</ele>
        <time>2017-08-23T15:37:01Z</time>
      </trkpt>
      <trkpt lat="44.99787" lon="0.72789">
        <ele>178.94</ele>
        <time>2017-08-23T15:37:21Z</time>
      </trkpt>
      <trkpt lat="44.99787" lon="0.7279">
        <ele>178.94</ele>
        <time>2017-08-23T15:37:48Z</time>
      </trkpt>
      <trkpt lat="44.99782" lon="0.72789">
        <ele>178.94</ele>
        <time>2017-08-23T15:38:01Z</time>
      </trkpt>
      <trkpt lat="44.99775" lon="0.72793">
        <ele>178.94</ele>
        <time>2017-08-23T15:38:07Z</time>
      </trkpt>
      <trkpt lat="44.9976" lon="0.72797">
        <ele>179.42</ele>
        <time>2017-08-23T15:38:21Z</time>
      </trkpt>
      <trkpt lat="44.99758" lon="0.72798">
        <ele>179.42</ele>
        <time>2017-08-23T15:38:23Z</time>
      </trkpt>
      <trkpt lat="44.99744" lon="0.72803">
        <ele>179.42</ele>
        <time>2017-08-23T15:38:36Z</time>
      </trkpt>
      <trkpt lat="44.99728" lon="0.72808">
        <ele>179.9</ele>
        <time>2017-08-23T15:38:50Z</time>
      </trkpt>
      <trkpt lat="44.99715" lon="0.72811">
        <ele>180.38</ele>
        <time>2017-08-23T15:39:03Z</time>
      </trkpt>
      <trkpt lat="44.99706" lon="0.72813">
        <ele>180.38</ele>
        <time>2017-08-23T15:39:10Z</time>
      </trkpt>
      <trkpt lat="44.99701" lon="0.72816">
        <ele>180.87</ele>
        <time>2017-08-23T15:39:17Z</time>
      </trkpt>
      <trkpt lat="44.99698" lon="0.72816">
        <ele>180.87</ele>
        <time>2017-08-23T15:39:19Z</time>
      </trkpt>
      <trkpt lat="44.99695" lon="0.72816">
        <ele>180.87</ele>
        <time>2017-08-23T15:39:22Z</time>
      </trkpt>
      <trkpt lat="44.99677" lon="0.72815">
        <ele>181.35</ele>
        <time>2017-08-23T15:39:37Z</time>
      </trkpt>
      <trkpt lat="44.99664" lon="0.72815">
        <ele>181.35</ele>
        <time>2017-08-23T15:39:49Z</time>
      </trkpt>
      <trkpt lat="44.99655" lon="0.72817">
        <ele>181.35</ele>
        <time>2017-08-23T15:39:57Z</time>
      </trkpt>
      <trkpt lat="44.99651" lon="0.72818">
        <ele>181.83</ele>
        <time>2017-08-23T15:40:01Z</time>
      </trkpt>
      <trkpt lat="44.99635" lon="0.72821">
        <ele>181.83</ele>
        <time>2017-08-23T15:40:15Z</time>
      </trkpt>
      <trkpt lat="44.99617" lon="0.72823">
        <ele>182.31</ele>
        <time>2017-08-23T15:40:31Z</time>
      </trkpt>
      <trkpt lat="44.99601" lon="0.72827">
        <ele>182.79</ele>
        <time>2017-08-23T15:40:46Z</time>
      </trkpt>
      <trkpt lat="44.996" lon="0.72827">
        <ele>182.79</ele>
        <time>2017-08-23T15:40:47Z</time>
      </trkpt>
      <trkpt lat="44.99596" lon="0.72828">
        <ele>182.79</ele>
        <time>2017-08-23T15:40:50Z</time>
      </trkpt>
      <trkpt lat="44.99588" lon="0.72829">
        <ele>182.79</ele>
        <time>2017-08-23T15:40:58Z</time>
      </trkpt>
      <trkpt lat="44.99584" lon="0.72831">
        <ele>183.27</ele>
        <time>2017-08-23T15:41:02Z</time>
      </trkpt>
      <trkpt lat="44.99579" lon="0.72832">
        <ele>183.27</ele>
        <time>2017-08-23T15:41:06Z</time>
      </trkpt>
      <trkpt lat="44.99563" lon="0.72839">
        <ele>183.75</ele>
        <time>2017-08-23T15:41:21Z</time>
      </trkpt>
      <trkpt lat="44.9955" lon="0.72843">
        <ele>184.71</ele>
        <time>2017-08-23T15:41:34Z</time>
      </trkpt>
      <trkpt lat="44.99533" lon="0.72843">
        <ele>185.67</ele>
        <time>2017-08-23T15:41:51Z</time>
      </trkpt>
      <trkpt lat="44.99525" lon="0.72844">
        <ele>186.15</ele>
        <time>2017-08-23T15:42:07Z</time>
      </trkpt>
      <trkpt lat="44.99512" lon="0.72851">
        <ele>186.63</ele>
        <time>2017-08-23T15:42:21Z</time>
      </trkpt>
      <trkpt lat="44.99499" lon="0.72853">
        <ele>187.59</ele>
        <time>2017-08-23T15:42:35Z</time>
      </trkpt>
      <trkpt lat="44.99485" lon="0.72858">
        <ele>188.56</ele>
        <time>2017-08-23T15:42:50Z</time>
      </trkpt>
      <trkpt lat="44.99486" lon="0.72858">
        <ele>188.56</ele>
        <time>2017-08-23T15:43:12Z</time>
      </trkpt>
      <trkpt lat="44.99485" lon="0.72858">
        <ele>188.56</ele>
        <time>2017-08-23T15:43:37Z</time>
      </trkpt>
      <trkpt lat="44.99481" lon="0.72859">
        <ele>188.56</ele>
        <time>2017-08-23T15:43:41Z</time>
      </trkpt>
      <trkpt lat="44.99468" lon="0.72866">
        <ele>189.04</ele>
        <time>2017-08-23T15:43:54Z</time>
      </trkpt>
      <trkpt lat="44.99454" lon="0.72871">
        <ele>189.52</ele>
        <time>2017-08-23T15:44:07Z</time>
      </trkpt>
      <trkpt lat="44.99441" lon="0.72878">
        <ele>190</ele>
        <time>2017-08-23T15:44:20Z</time>
      </trkpt>
      <trkpt lat="44.99432" lon="0.72884">
        <ele>190</ele>
        <time>2017-08-23T15:44:31Z</time>
      </trkpt>
      <trkpt lat="44.99429" lon="0.72888">
        <ele>190</ele>
        <time>2017-08-23T15:44:34Z</time>
      </trkpt>
      <trkpt lat="44.9942" lon="0.72891">
        <ele>190.48</ele>
        <time>2017-08-23T15:44:42Z</time>
      </trkpt>
      <trkpt lat="44.99406" lon="0.72902">
        <ele>190.48</ele>
        <time>2017-08-23T15:44:57Z</time>
      </trkpt>
      <trkpt lat="44.99399" lon="0.72907">
        <ele>190.48</ele>
        <time>2017-08-23T15:45:04Z</time>
      </trkpt>
      <trkpt lat="44.99384" lon="0.72922">
        <ele>190.48</ele>
        <time>2017-08-23T15:45:21Z</time>
      </trkpt>
      <trkpt lat="44.99371" lon="0.7293">
        <ele>190.48</ele>
        <time>2017-08-23T15:45:36Z</time>
      </trkpt>
      <trkpt lat="44.99359" lon="0.72936">
        <ele>190.48</ele>
        <time>2017-08-23T15:45:48Z</time>
      </trkpt>
      <trkpt lat="44.99355" lon="0.72937">
        <ele>190.48</ele>
        <time>2017-08-23T15:45:52Z</time>
      </trkpt>
      <trkpt lat="44.99343" lon="0.72946">
        <ele>190.48</ele>
        <time>2017-08-23T15:46:05Z</time>
      </trkpt>
      <trkpt lat="44.99342" lon="0.72947">
        <ele>190.48</ele>
        <time>2017-08-23T15:46:10Z</time>
      </trkpt>
      <trkpt lat="44.99332" lon="0.72957">
        <ele>190.96</ele>
        <time>2017-08-23T15:46:24Z</time>
      </trkpt>
      <trkpt lat="44.99319" lon="0.7297">
        <ele>191.44</ele>
        <time>2017-08-23T15:46:39Z</time>
      </trkpt>
      <trkpt lat="44.99312" lon="0.7298">
        <ele>191.44</ele>
        <time>2017-08-23T15:46:48Z</time>
      </trkpt>
      <trkpt lat="44.99298" lon="0.72994">
        <ele>191.92</ele>
        <time>2017-08-23T15:47:02Z</time>
      </trkpt>
      <trkpt lat="44.99291" lon="0.73005">
        <ele>192.88</ele>
        <time>2017-08-23T15:47:13Z</time>
      </trkpt>
      <trkpt lat="44.99281" lon="0.7302">
        <ele>193.36</ele>
        <time>2017-08-23T15:47:28Z</time>
      </trkpt>
      <trkpt lat="44.99279" lon="0.73024">
        <ele>193.84</ele>
        <time>2017-08-23T15:47:32Z</time>
      </trkpt>
      <trkpt lat="44.99271" lon="0.73037">
        <ele>194.32</ele>
        <time>2017-08-23T15:47:45Z</time>
      </trkpt>
      <trkpt lat="44.99258" lon="0.73059">
        <ele>195.28</ele>
        <time>2017-08-23T15:48:01Z</time>
      </trkpt>
      <trkpt lat="44.99257" lon="0.7306">
        <ele>195.28</ele>
        <time>2017-08-23T15:48:02Z</time>
      </trkpt>
      <trkpt lat="44.99254" lon="0.73065">
        <ele>195.28</ele>
        <time>2017-08-23T15:48:06Z</time>
      </trkpt>
      <trkpt lat="44.99242" lon="0.73084">
        <ele>195.77</ele>
        <time>2017-08-23T15:48:21Z</time>
      </trkpt>
      <trkpt lat="44.99241" lon="0.73087">
        <ele>196.25</ele>
        <time>2017-08-23T15:48:23Z</time>
      </trkpt>
      <trkpt lat="44.99231" lon="0.73108">
        <ele>197.21</ele>
        <time>2017-08-23T15:48:40Z</time>
      </trkpt>
      <trkpt lat="44.9923" lon="0.73109">
        <ele>197.21</ele>
        <time>2017-08-23T15:48:41Z</time>
      </trkpt>
      <trkpt lat="44.99215" lon="0.73109">
        <ele>197.69</ele>
        <time>2017-08-23T15:48:56Z</time>
      </trkpt>
      <trkpt lat="44.99205" lon="0.73111">
        <ele>196.73</ele>
        <time>2017-08-23T15:49:08Z</time>
      </trkpt>
      <trkpt lat="44.99202" lon="0.7311">
        <ele>196.73</ele>
        <time>2017-08-23T15:49:11Z</time>
      </trkpt>
      <trkpt lat="44.99191" lon="0.73109">
        <ele>196.25</ele>
        <time>2017-08-23T15:49:21Z</time>
      </trkpt>
      <trkpt lat="44.99185" lon="0.73108">
        <ele>195.77</ele>
        <time>2017-08-23T15:49:26Z</time>
      </trkpt>
      <trkpt lat="44.99182" lon="0.73109">
        <ele>195.77</ele>
        <time>2017-08-23T15:49:29Z</time>
      </trkpt>
      <trkpt lat="44.99171" lon="0.73108">
        <ele>195.28</ele>
        <time>2017-08-23T15:49:38Z</time>
      </trkpt>
      <trkpt lat="44.99161" lon="0.73108">
        <ele>194.8</ele>
        <time>2017-08-23T15:49:48Z</time>
      </trkpt>
      <trkpt lat="44.99155" lon="0.73107">
        <ele>194.8</ele>
        <time>2017-08-23T15:49:54Z</time>
      </trkpt>
      <trkpt lat="44.99153" lon="0.73107">
        <ele>194.8</ele>
        <time>2017-08-23T15:49:56Z</time>
      </trkpt>
      <trkpt lat="44.99145" lon="0.73106">
        <ele>194.32</ele>
        <time>2017-08-23T15:50:03Z</time>
      </trkpt>
      <trkpt lat="44.99143" lon="0.73107">
        <ele>194.32</ele>
        <time>2017-08-23T15:50:05Z</time>
      </trkpt>
      <trkpt lat="44.99141" lon="0.73108">
        <ele>194.32</ele>
        <time>2017-08-23T15:50:07Z</time>
      </trkpt>
      <trkpt lat="44.99136" lon="0.73106">
        <ele>193.84</ele>
        <time>2017-08-23T15:50:11Z</time>
      </trkpt>
      <trkpt lat="44.99121" lon="0.73108">
        <ele>193.36</ele>
        <time>2017-08-23T15:50:26Z</time>
      </trkpt>
      <trkpt lat="44.99109" lon="0.7311">
        <ele>192.88</ele>
        <time>2017-08-23T15:50:40Z</time>
      </trkpt>
      <trkpt lat="44.991" lon="0.73111">
        <ele>192.88</ele>
        <time>2017-08-23T15:50:53Z</time>
      </trkpt>
      <trkpt lat="44.99099" lon="0.7311">
        <ele>192.88</ele>
        <time>2017-08-23T15:51:11Z</time>
      </trkpt>
      <trkpt lat="44.99098" lon="0.73112">
        <ele>192.88</ele>
        <time>2017-08-23T15:51:34Z</time>
      </trkpt>
      <trkpt lat="44.99098" lon="0.73115">
        <ele>192.4</ele>
        <time>2017-08-23T15:51:47Z</time>
      </trkpt>
      <trkpt lat="44.9911" lon="0.73125">
        <ele>192.88</ele>
        <time>2017-08-23T15:52:01Z</time>
      </trkpt>
      <trkpt lat="44.99122" lon="0.73142">
        <ele>192.4</ele>
        <time>2017-08-23T15:52:15Z</time>
      </trkpt>
      <trkpt lat="44.99133" lon="0.73163">
        <ele>192.4</ele>
        <time>2017-08-23T15:52:30Z</time>
      </trkpt>
      <trkpt lat="44.99135" lon="0.7317">
        <ele>192.4</ele>
        <time>2017-08-23T15:52:34Z</time>
      </trkpt>
      <trkpt lat="44.99145" lon="0.73193">
        <ele>192.88</ele>
        <time>2017-08-23T15:52:50Z</time>
      </trkpt>
      <trkpt lat="44.9915" lon="0.73211">
        <ele>192.4</ele>
        <time>2017-08-23T15:53:02Z</time>
      </trkpt>
      <trkpt lat="44.99148" lon="0.73216">
        <ele>192.4</ele>
        <time>2017-08-23T15:53:07Z</time>
      </trkpt>
      <trkpt lat="44.99139" lon="0.73231">
        <ele>190.48</ele>
        <time>2017-08-23T15:53:24Z</time>
      </trkpt>
      <trkpt lat="44.99121" lon="0.73241">
        <ele>187.59</ele>
        <time>2017-08-23T15:53:43Z</time>
      </trkpt>
      <trkpt lat="44.99109" lon="0.73246">
        <ele>186.15</ele>
        <time>2017-08-23T15:53:57Z</time>
      </trkpt>
      <trkpt lat="44.99102" lon="0.73254">
        <ele>185.19</ele>
        <time>2017-08-23T15:54:08Z</time>
      </trkpt>
      <trkpt lat="44.99093" lon="0.73258">
        <ele>184.71</ele>
        <time>2017-08-23T15:54:16Z</time>
      </trkpt>
      <trkpt lat="44.99081" lon="0.73262">
        <ele>183.75</ele>
        <time>2017-08-23T15:54:26Z</time>
      </trkpt>
      <trkpt lat="44.99074" lon="0.73265">
        <ele>183.75</ele>
        <time>2017-08-23T15:54:32Z</time>
      </trkpt>
      <trkpt lat="44.99058" lon="0.73269">
        <ele>182.79</ele>
        <time>2017-08-23T15:54:45Z</time>
      </trkpt>
      <trkpt lat="44.99054" lon="0.73272">
        <ele>182.79</ele>
        <time>2017-08-23T15:54:49Z</time>
      </trkpt>
      <trkpt lat="44.99042" lon="0.73283">
        <ele>182.31</ele>
        <time>2017-08-23T15:55:03Z</time>
      </trkpt>
      <trkpt lat="44.9904" lon="0.73285">
        <ele>182.31</ele>
        <time>2017-08-23T15:55:05Z</time>
      </trkpt>
      <trkpt lat="44.99037" lon="0.73288">
        <ele>182.31</ele>
        <time>2017-08-23T15:55:09Z</time>
      </trkpt>
      <trkpt lat="44.99025" lon="0.73301">
        <ele>182.31</ele>
        <time>2017-08-23T15:55:22Z</time>
      </trkpt>
      <trkpt lat="44.99014" lon="0.73314">
        <ele>181.83</ele>
        <time>2017-08-23T15:55:35Z</time>
      </trkpt>
      <trkpt lat="44.99008" lon="0.73319">
        <ele>181.83</ele>
        <time>2017-08-23T15:55:42Z</time>
      </trkpt>
      <trkpt lat="44.98997" lon="0.73331">
        <ele>181.35</ele>
        <time>2017-08-23T15:55:55Z</time>
      </trkpt>
      <trkpt lat="44.98986" lon="0.73339">
        <ele>181.83</ele>
        <time>2017-08-23T15:56:07Z</time>
      </trkpt>
      <trkpt lat="44.98982" lon="0.73341">
        <ele>181.35</ele>
        <time>2017-08-23T15:56:12Z</time>
      </trkpt>
      <trkpt lat="44.98973" lon="0.73346">
        <ele>181.35</ele>
        <time>2017-08-23T15:56:22Z</time>
      </trkpt>
      <trkpt lat="44.98965" lon="0.73349">
        <ele>181.35</ele>
        <time>2017-08-23T15:56:30Z</time>
      </trkpt>
      <trkpt lat="44.98946" lon="0.73353">
        <ele>180.87</ele>
        <time>2017-08-23T15:56:46Z</time>
      </trkpt>
      <trkpt lat="44.98932" lon="0.73352">
        <ele>180.87</ele>
        <time>2017-08-23T15:57:03Z</time>
      </trkpt>
      <trkpt lat="44.98927" lon="0.73354">
        <ele>179.9</ele>
        <time>2017-08-23T15:57:17Z</time>
      </trkpt>
      <trkpt lat="44.98923" lon="0.73361">
        <ele>178.46</ele>
        <time>2017-08-23T15:57:32Z</time>
      </trkpt>
      <trkpt lat="44.98919" lon="0.73381">
        <ele>177.02</ele>
        <time>2017-08-23T15:57:48Z</time>
      </trkpt>
      <trkpt lat="44.98916" lon="0.73409">
        <ele>175.58</ele>
        <time>2017-08-23T15:58:04Z</time>
      </trkpt>
      <trkpt lat="44.9892" lon="0.73422">
        <ele>174.14</ele>
        <time>2017-08-23T15:58:19Z</time>
      </trkpt>
      <trkpt lat="44.98914" lon="0.73439">
        <ele>172.69</ele>
        <time>2017-08-23T15:58:35Z</time>
      </trkpt>
      <trkpt lat="44.98907" lon="0.7345">
        <ele>170.77</ele>
        <time>2017-08-23T15:58:50Z</time>
      </trkpt>
      <trkpt lat="44.98901" lon="0.73455">
        <ele>169.81</ele>
        <time>2017-08-23T15:59:06Z</time>
      </trkpt>
      <trkpt lat="44.98894" lon="0.73457">
        <ele>168.85</ele>
        <time>2017-08-23T15:59:20Z</time>
      </trkpt>
      <trkpt lat="44.98887" lon="0.73456">
        <ele>167.41</ele>
        <time>2017-08-23T15:59:33Z</time>
      </trkpt>
      <trkpt lat="44.98878" lon="0.73457">
        <ele>166.45</ele>
        <time>2017-08-23T15:59:47Z</time>
      </trkpt>
      <trkpt lat="44.98868" lon="0.7346">
        <ele>165</ele>
        <time>2017-08-23T15:59:59Z</time>
      </trkpt>
      <trkpt lat="44.98862" lon="0.73458">
        <ele>164.04</ele>
        <time>2017-08-23T16:00:13Z</time>
      </trkpt>
      <trkpt lat="44.98851" lon="0.73451">
        <ele>163.08</ele>
        <time>2017-08-23T16:00:27Z</time>
      </trkpt>
      <trkpt lat="44.98843" lon="0.7345">
        <ele>162.12</ele>
        <time>2017-08-23T16:00:40Z</time>
      </trkpt>
      <trkpt lat="44.9883" lon="0.73448">
        <ele>160.68</ele>
        <time>2017-08-23T16:00:56Z</time>
      </trkpt>
      <trkpt lat="44.98818" lon="0.73449">
        <ele>159.72</ele>
        <time>2017-08-23T16:01:08Z</time>
      </trkpt>
      <trkpt lat="44.98801" lon="0.7345">
        <ele>158.27</ele>
        <time>2017-08-23T16:01:24Z</time>
      </trkpt>
      <trkpt lat="44.9879" lon="0.73447">
        <ele>157.31</ele>
        <time>2017-08-23T16:01:37Z</time>
      </trkpt>
      <trkpt lat="44.98778" lon="0.7345">
        <ele>155.87</ele>
        <time>2017-08-23T16:01:51Z</time>
      </trkpt>
      <trkpt lat="44.98765" lon="0.73453">
        <ele>154.91</ele>
        <time>2017-08-23T16:02:05Z</time>
      </trkpt>
      <trkpt lat="44.98754" lon="0.7346">
        <ele>153.47</ele>
        <time>2017-08-23T16:02:20Z</time>
      </trkpt>
      <trkpt lat="44.98737" lon="0.73463">
        <ele>152.51</ele>
        <time>2017-08-23T16:02:33Z</time>
      </trkpt>
      <trkpt lat="44.98728" lon="0.73467">
        <ele>151.54</ele>
        <time>2017-08-23T16:02:45Z</time>
      </trkpt>
      <trkpt lat="44.98717" lon="0.73474">
        <ele>150.58</ele>
        <time>2017-08-23T16:02:58Z</time>
      </trkpt>
      <trkpt lat="44.98705" lon="0.73487">
        <ele>150.1</ele>
        <time>2017-08-23T16:03:14Z</time>
      </trkpt>
      <trkpt lat="44.98699" lon="0.73497">
        <ele>149.14</ele>
        <time>2017-08-23T16:03:28Z</time>
      </trkpt>
      <trkpt lat="44.98689" lon="0.735">
        <ele>148.18</ele>
        <time>2017-08-23T16:03:35Z</time>
      </trkpt>
      <trkpt lat="44.98682" lon="0.73495">
        <ele>148.18</ele>
        <time>2017-08-23T16:03:39Z</time>
      </trkpt>
      <trkpt lat="44.98673" lon="0.73491">
        <ele>148.18</ele>
        <time>2017-08-23T16:03:45Z</time>
      </trkpt>
      <trkpt lat="44.98663" lon="0.73476">
        <ele>147.7</ele>
        <time>2017-08-23T16:03:56Z</time>
      </trkpt>
      <trkpt lat="44.98659" lon="0.73461">
        <ele>148.18</ele>
        <time>2017-08-23T16:04:09Z</time>
      </trkpt>
      <trkpt lat="44.98652" lon="0.73443">
        <ele>148.66</ele>
        <time>2017-08-23T16:04:23Z</time>
      </trkpt>
      <trkpt lat="44.98645" lon="0.73436">
        <ele>149.14</ele>
        <time>2017-08-23T16:04:38Z</time>
      </trkpt>
      <trkpt lat="44.98633" lon="0.73426">
        <ele>148.66</ele>
        <time>2017-08-23T16:04:50Z</time>
      </trkpt>
      <trkpt lat="44.98626" lon="0.7342">
        <ele>148.18</ele>
        <time>2017-08-23T16:05:02Z</time>
      </trkpt>
      <trkpt lat="44.9862" lon="0.73417">
        <ele>147.7</ele>
        <time>2017-08-23T16:05:20Z</time>
      </trkpt>
      <trkpt lat="44.98617" lon="0.73411">
        <ele>147.7</ele>
        <time>2017-08-23T16:05:51Z</time>
      </trkpt>
      <trkpt lat="44.98612" lon="0.73409">
        <ele>147.22</ele>
        <time>2017-08-23T16:06:11Z</time>
      </trkpt>
      <trkpt lat="44.98602" lon="0.73404">
        <ele>146.74</ele>
        <time>2017-08-23T16:06:24Z</time>
      </trkpt>
      <trkpt lat="44.98588" lon="0.7339">
        <ele>146.26</ele>
        <time>2017-08-23T16:06:37Z</time>
      </trkpt>
      <trkpt lat="44.98578" lon="0.73377">
        <ele>145.78</ele>
        <time>2017-08-23T16:06:51Z</time>
      </trkpt>
      <trkpt lat="44.98576" lon="0.73375">
        <ele>145.78</ele>
        <time>2017-08-23T16:06:53Z</time>
      </trkpt>
      <trkpt lat="44.98566" lon="0.73366">
        <ele>145.3</ele>
        <time>2017-08-23T16:07:06Z</time>
      </trkpt>
      <trkpt lat="44.98556" lon="0.73355">
        <ele>144.82</ele>
        <time>2017-08-23T16:07:20Z</time>
      </trkpt>
      <trkpt lat="44.98545" lon="0.73343">
        <ele>144.34</ele>
        <time>2017-08-23T16:07:30Z</time>
      </trkpt>
      <trkpt lat="44.98532" lon="0.73326">
        <ele>143.37</ele>
        <time>2017-08-23T16:07:44Z</time>
      </trkpt>
      <trkpt lat="44.98519" lon="0.73307">
        <ele>142.89</ele>
        <time>2017-08-23T16:08:00Z</time>
      </trkpt>
      <trkpt lat="44.98512" lon="0.73292">
        <ele>142.89</ele>
        <time>2017-08-23T16:08:14Z</time>
      </trkpt>
      <trkpt lat="44.98508" lon="0.73286">
        <ele>142.41</ele>
        <time>2017-08-23T16:08:23Z</time>
      </trkpt>
      <trkpt lat="44.985" lon="0.73273">
        <ele>141.93</ele>
        <time>2017-08-23T16:08:36Z</time>
      </trkpt>
      <trkpt lat="44.98497" lon="0.73272">
        <ele>141.93</ele>
        <time>2017-08-23T16:08:39Z</time>
      </trkpt>
      <trkpt lat="44.98481" lon="0.73251">
        <ele>141.45</ele>
        <time>2017-08-23T16:08:53Z</time>
      </trkpt>
      <trkpt lat="44.98475" lon="0.73246">
        <ele>141.45</ele>
        <time>2017-08-23T16:09:00Z</time>
      </trkpt>
      <trkpt lat="44.98465" lon="0.73234">
        <ele>141.45</ele>
        <time>2017-08-23T16:09:13Z</time>
      </trkpt>
      <trkpt lat="44.98454" lon="0.7322">
        <ele>141.45</ele>
        <time>2017-08-23T16:09:26Z</time>
      </trkpt>
      <trkpt lat="44.98447" lon="0.73213">
        <ele>141.45</ele>
        <time>2017-08-23T16:09:34Z</time>
      </trkpt>
      <trkpt lat="44.98439" lon="0.73206">
        <ele>141.93</ele>
        <time>2017-08-23T16:09:43Z</time>
      </trkpt>
      <trkpt lat="44.98432" lon="0.73196">
        <ele>141.93</ele>
        <time>2017-08-23T16:09:58Z</time>
      </trkpt>
      <trkpt lat="44.98423" lon="0.73187">
        <ele>141.45</ele>
        <time>2017-08-23T16:10:10Z</time>
      </trkpt>
      <trkpt lat="44.98417" lon="0.73176">
        <ele>140.97</ele>
        <time>2017-08-23T16:10:22Z</time>
      </trkpt>
      <trkpt lat="44.9841" lon="0.73166">
        <ele>140.97</ele>
        <time>2017-08-23T16:10:34Z</time>
      </trkpt>
      <trkpt lat="44.98406" lon="0.73145">
        <ele>141.45</ele>
        <time>2017-08-23T16:10:49Z</time>
      </trkpt>
      <trkpt lat="44.98402" lon="0.73132">
        <ele>141.45</ele>
        <time>2017-08-23T16:10:54Z</time>
      </trkpt>
      <trkpt lat="44.98399" lon="0.73115">
        <ele>141.45</ele>
        <time>2017-08-23T16:11:01Z</time>
      </trkpt>
      <trkpt lat="44.98396" lon="0.73099">
        <ele>141.45</ele>
        <time>2017-08-23T16:11:13Z</time>
      </trkpt>
      <trkpt lat="44.98394" lon="0.73086">
        <ele>140.97</ele>
        <time>2017-08-23T16:11:27Z</time>
      </trkpt>
      <trkpt lat="44.9839" lon="0.73063">
        <ele>141.45</ele>
        <time>2017-08-23T16:11:40Z</time>
      </trkpt>
      <trkpt lat="44.98386" lon="0.73042">
        <ele>141.45</ele>
        <time>2017-08-23T16:11:53Z</time>
      </trkpt>
      <trkpt lat="44.98385" lon="0.73036">
        <ele>140.97</ele>
        <time>2017-08-23T16:11:56Z</time>
      </trkpt>
      <trkpt lat="44.98382" lon="0.73014">
        <ele>140.97</ele>
        <time>2017-08-23T16:12:10Z</time>
      </trkpt>
      <trkpt lat="44.98381" lon="0.73013">
        <ele>140.97</ele>
        <time>2017-08-23T16:12:11Z</time>
      </trkpt>
      <trkpt lat="44.98368" lon="0.73">
        <ele>140.97</ele>
        <time>2017-08-23T16:12:26Z</time>
      </trkpt>
      <trkpt lat="44.98366" lon="0.73">
        <ele>140.49</ele>
        <time>2017-08-23T16:12:28Z</time>
      </trkpt>
      <trkpt lat="44.98359" lon="0.72999">
        <ele>140.97</ele>
        <time>2017-08-23T16:12:35Z</time>
      </trkpt>
      <trkpt lat="44.98347" lon="0.72997">
        <ele>141.45</ele>
        <time>2017-08-23T16:12:48Z</time>
      </trkpt>
      <trkpt lat="44.98331" lon="0.72989">
        <ele>142.89</ele>
        <time>2017-08-23T16:13:04Z</time>
      </trkpt>
      <trkpt lat="44.9832" lon="0.72984">
        <ele>143.37</ele>
        <time>2017-08-23T16:13:17Z</time>
      </trkpt>
      <trkpt lat="44.98317" lon="0.72981">
        <ele>143.37</ele>
        <time>2017-08-23T16:13:22Z</time>
      </trkpt>
      <trkpt lat="44.98304" lon="0.72973">
        <ele>143.37</ele>
        <time>2017-08-23T16:13:38Z</time>
      </trkpt>
      <trkpt lat="44.98292" lon="0.72965">
        <ele>143.37</ele>
        <time>2017-08-23T16:13:51Z</time>
      </trkpt>
      <trkpt lat="44.98285" lon="0.72959">
        <ele>142.89</ele>
        <time>2017-08-23T16:14:04Z</time>
      </trkpt>
      <trkpt lat="44.9827" lon="0.72952">
        <ele>142.41</ele>
        <time>2017-08-23T16:14:17Z</time>
      </trkpt>
      <trkpt lat="44.98253" lon="0.7294">
        <ele>142.41</ele>
        <time>2017-08-23T16:14:31Z</time>
      </trkpt>
      <trkpt lat="44.98241" lon="0.72932">
        <ele>141.93</ele>
        <time>2017-08-23T16:14:44Z</time>
      </trkpt>
      <trkpt lat="44.98229" lon="0.72923">
        <ele>141.93</ele>
        <time>2017-08-23T16:14:58Z</time>
      </trkpt>
      <trkpt lat="44.98211" lon="0.72909">
        <ele>141.45</ele>
        <time>2017-08-23T16:15:11Z</time>
      </trkpt>
      <trkpt lat="44.98195" lon="0.72891">
        <ele>141.93</ele>
        <time>2017-08-23T16:15:28Z</time>
      </trkpt>
      <trkpt lat="44.98183" lon="0.72879">
        <ele>141.45</ele>
        <time>2017-08-23T16:15:42Z</time>
      </trkpt>
      <trkpt lat="44.98174" lon="0.72869">
        <ele>141.45</ele>
        <time>2017-08-23T16:15:55Z</time>
      </trkpt>
      <trkpt lat="44.9816" lon="0.72854">
        <ele>141.45</ele>
        <time>2017-08-23T16:16:09Z</time>
      </trkpt>
      <trkpt lat="44.98147" lon="0.72845">
        <ele>141.45</ele>
        <time>2017-08-23T16:16:25Z</time>
      </trkpt>
      <trkpt lat="44.98136" lon="0.72835">
        <ele>140.97</ele>
        <time>2017-08-23T16:16:37Z</time>
      </trkpt>
      <trkpt lat="44.9813" lon="0.7283">
        <ele>140.97</ele>
        <time>2017-08-23T16:16:51Z</time>
      </trkpt>
      <trkpt lat="44.98124" lon="0.72825">
        <ele>140.97</ele>
        <time>2017-08-23T16:17:01Z</time>
      </trkpt>
      <trkpt lat="44.98111" lon="0.72817">
        <ele>140.97</ele>
        <time>2017-08-23T16:17:14Z</time>
      </trkpt>
      <trkpt lat="44.98106" lon="0.72812">
        <ele>141.45</ele>
        <time>2017-08-23T16:17:20Z</time>
      </trkpt>
      <trkpt lat="44.98104" lon="0.72811">
        <ele>141.45</ele>
        <time>2017-08-23T16:17:22Z</time>
      </trkpt>
      <trkpt lat="44.98089" lon="0.72794">
        <ele>141.45</ele>
        <time>2017-08-23T16:17:38Z</time>
      </trkpt>
      <trkpt lat="44.98078" lon="0.72783">
        <ele>141.45</ele>
        <time>2017-08-23T16:17:49Z</time>
      </trkpt>
      <trkpt lat="44.98066" lon="0.72773">
        <ele>141.45</ele>
        <time>2017-08-23T16:18:05Z</time>
      </trkpt>
      <trkpt lat="44.98054" lon="0.72763">
        <ele>141.45</ele>
        <time>2017-08-23T16:18:19Z</time>
      </trkpt>
      <trkpt lat="44.98044" lon="0.72748">
        <ele>140.49</ele>
        <time>2017-08-23T16:18:35Z</time>
      </trkpt>
      <trkpt lat="44.98045" lon="0.72744">
        <ele>140.49</ele>
        <time>2017-08-23T16:18:48Z</time>
      </trkpt>
      <trkpt lat="44.98052" lon="0.72739">
        <ele>141.93</ele>
        <time>2017-08-23T16:19:03Z</time>
      </trkpt>
      <trkpt lat="44.98061" lon="0.72735">
        <ele>143.37</ele>
        <time>2017-08-23T16:19:17Z</time>
      </trkpt>
      <trkpt lat="44.98072" lon="0.72732">
        <ele>145.3</ele>
        <time>2017-08-23T16:19:32Z</time>
      </trkpt>
      <trkpt lat="44.98082" lon="0.72727">
        <ele>146.26</ele>
        <time>2017-08-23T16:19:47Z</time>
      </trkpt>
      <trkpt lat="44.98094" lon="0.72723">
        <ele>148.18</ele>
        <time>2017-08-23T16:20:03Z</time>
      </trkpt>
      <trkpt lat="44.98102" lon="0.72718">
        <ele>149.14</ele>
        <time>2017-08-23T16:20:17Z</time>
      </trkpt>
      <trkpt lat="44.98112" lon="0.72716">
        <ele>150.1</ele>
        <time>2017-08-23T16:20:32Z</time>
      </trkpt>
      <trkpt lat="44.98122" lon="0.72709">
        <ele>151.54</ele>
        <time>2017-08-23T16:20:46Z</time>
      </trkpt>
      <trkpt lat="44.98134" lon="0.72704">
        <ele>152.99</ele>
        <time>2017-08-23T16:21:03Z</time>
      </trkpt>
      <trkpt lat="44.98144" lon="0.72701">
        <ele>154.43</ele>
        <time>2017-08-23T16:21:17Z</time>
      </trkpt>
      <trkpt lat="44.98157" lon="0.72696">
        <ele>156.35</ele>
        <time>2017-08-23T16:21:34Z</time>
      </trkpt>
      <trkpt lat="44.98163" lon="0.72692">
        <ele>158.27</ele>
        <time>2017-08-23T16:21:48Z</time>
      </trkpt>
      <trkpt lat="44.98173" lon="0.72687">
        <ele>159.72</ele>
        <time>2017-08-23T16:22:01Z</time>
      </trkpt>
      <trkpt lat="44.98185" lon="0.72683">
        <ele>161.16</ele>
        <time>2017-08-23T16:22:15Z</time>
      </trkpt>
      <trkpt lat="44.98198" lon="0.72676">
        <ele>162.6</ele>
        <time>2017-08-23T16:22:30Z</time>
      </trkpt>
      <trkpt lat="44.98206" lon="0.72673">
        <ele>164.52</ele>
        <time>2017-08-23T16:22:46Z</time>
      </trkpt>
      <trkpt lat="44.98217" lon="0.72675">
        <ele>165.96</ele>
        <time>2017-08-23T16:22:59Z</time>
      </trkpt>
      <trkpt lat="44.98226" lon="0.72672">
        <ele>167.41</ele>
        <time>2017-08-23T16:23:10Z</time>
      </trkpt>
      <trkpt lat="44.98231" lon="0.72671">
        <ele>167.89</ele>
        <time>2017-08-23T16:23:24Z</time>
      </trkpt>
      <trkpt lat="44.98236" lon="0.7267">
        <ele>168.37</ele>
        <time>2017-08-23T16:23:38Z</time>
      </trkpt>
      <trkpt lat="44.98243" lon="0.72667">
        <ele>169.33</ele>
        <time>2017-08-23T16:23:49Z</time>
      </trkpt>
      <trkpt lat="44.98252" lon="0.72663">
        <ele>169.81</ele>
        <time>2017-08-23T16:24:00Z</time>
      </trkpt>
      <trkpt lat="44.98262" lon="0.72659">
        <ele>170.29</ele>
        <time>2017-08-23T16:24:13Z</time>
      </trkpt>
      <trkpt lat="44.98269" lon="0.72655">
        <ele>170.77</ele>
        <time>2017-08-23T16:24:21Z</time>
      </trkpt>
      <trkpt lat="44.98283" lon="0.72646">
        <ele>171.25</ele>
        <time>2017-08-23T16:24:35Z</time>
      </trkpt>
      <trkpt lat="44.98285" lon="0.72646">
        <ele>171.25</ele>
        <time>2017-08-23T16:24:37Z</time>
      </trkpt>
      <trkpt lat="44.98295" lon="0.7264">
        <ele>171.73</ele>
        <time>2017-08-23T16:24:48Z</time>
      </trkpt>
      <trkpt lat="44.9831" lon="0.72636">
        <ele>172.69</ele>
        <time>2017-08-23T16:25:02Z</time>
      </trkpt>
      <trkpt lat="44.9832" lon="0.72632">
        <ele>173.17</ele>
        <time>2017-08-23T16:25:14Z</time>
      </trkpt>
      <trkpt lat="44.98326" lon="0.72632">
        <ele>173.66</ele>
        <time>2017-08-23T16:25:21Z</time>
      </trkpt>
      <trkpt lat="44.98336" lon="0.7263">
        <ele>174.14</ele>
        <time>2017-08-23T16:25:32Z</time>
      </trkpt>
      <trkpt lat="44.98343" lon="0.72628">
        <ele>174.14</ele>
        <time>2017-08-23T16:25:38Z</time>
      </trkpt>
      <trkpt lat="44.98345" lon="0.72627">
        <ele>174.62</ele>
        <time>2017-08-23T16:25:40Z</time>
      </trkpt>
      <trkpt lat="44.98359" lon="0.72623">
        <ele>175.1</ele>
        <time>2017-08-23T16:25:53Z</time>
      </trkpt>
      <trkpt lat="44.98368" lon="0.72622">
        <ele>175.1</ele>
        <time>2017-08-23T16:26:02Z</time>
      </trkpt>
      <trkpt lat="44.98374" lon="0.72621">
        <ele>175.58</ele>
        <time>2017-08-23T16:26:08Z</time>
      </trkpt>
      <trkpt lat="44.98382" lon="0.72619">
        <ele>176.06</ele>
        <time>2017-08-23T16:26:15Z</time>
      </trkpt>
      <trkpt lat="44.98383" lon="0.72619">
        <ele>176.06</ele>
        <time>2017-08-23T16:26:17Z</time>
      </trkpt>
      <trkpt lat="44.98395" lon="0.72616">
        <ele>176.54</ele>
        <time>2017-08-23T16:26:29Z</time>
      </trkpt>
      <trkpt lat="44.98404" lon="0.72615">
        <ele>176.54</ele>
        <time>2017-08-23T16:26:38Z</time>
      </trkpt>
      <trkpt lat="44.9842" lon="0.72612">
        <ele>177.02</ele>
        <time>2017-08-23T16:26:54Z</time>
      </trkpt>
      <trkpt lat="44.98431" lon="0.72609">
        <ele>177.98</ele>
        <time>2017-08-23T16:27:08Z</time>
      </trkpt>
      <trkpt lat="44.98438" lon="0.72608">
        <ele>178.46</ele>
        <time>2017-08-23T16:27:20Z</time>
      </trkpt>
      <trkpt lat="44.98454" lon="0.72608">
        <ele>178.94</ele>
        <time>2017-08-23T16:27:34Z</time>
      </trkpt>
      <trkpt lat="44.9847" lon="0.72609">
        <ele>179.42</ele>
        <time>2017-08-23T16:27:49Z</time>
      </trkpt>
      <trkpt lat="44.98485" lon="0.72611">
        <ele>180.38</ele>
        <time>2017-08-23T16:28:03Z</time>
      </trkpt>
      <trkpt lat="44.98501" lon="0.72612">
        <ele>179.9</ele>
        <time>2017-08-23T16:28:19Z</time>
      </trkpt>
      <trkpt lat="44.98517" lon="0.72612">
        <ele>179.42</ele>
        <time>2017-08-23T16:28:34Z</time>
      </trkpt>
      <trkpt lat="44.98526" lon="0.7261">
        <ele>178.94</ele>
        <time>2017-08-23T16:28:48Z</time>
      </trkpt>
      <trkpt lat="44.98538" lon="0.72611">
        <ele>177.98</ele>
        <time>2017-08-23T16:29:02Z</time>
      </trkpt>
      <trkpt lat="44.98553" lon="0.72614">
        <ele>177.98</ele>
        <time>2017-08-23T16:29:15Z</time>
      </trkpt>
      <trkpt lat="44.98568" lon="0.72615">
        <ele>177.5</ele>
        <time>2017-08-23T16:29:29Z</time>
      </trkpt>
      <trkpt lat="44.98586" lon="0.72615">
        <ele>177.5</ele>
        <time>2017-08-23T16:29:43Z</time>
      </trkpt>
      <trkpt lat="44.98604" lon="0.72611">
        <ele>177.5</ele>
        <time>2017-08-23T16:29:55Z</time>
      </trkpt>
      <trkpt lat="44.9862" lon="0.72606">
        <ele>177.5</ele>
        <time>2017-08-23T16:30:07Z</time>
      </trkpt>
      <trkpt lat="44.98633" lon="0.726">
        <ele>177.5</ele>
        <time>2017-08-23T16:30:20Z</time>
      </trkpt>
      <trkpt lat="44.98637" lon="0.726">
        <ele>177.5</ele>
        <time>2017-08-23T16:30:25Z</time>
      </trkpt>
      <trkpt lat="44.98651" lon="0.72603">
        <ele>177.98</ele>
        <time>2017-08-23T16:30:40Z</time>
      </trkpt>
      <trkpt lat="44.98657" lon="0.72604">
        <ele>178.46</ele>
        <time>2017-08-23T16:30:54Z</time>
      </trkpt>
      <trkpt lat="44.98662" lon="0.72604">
        <ele>177.98</ele>
        <time>2017-08-23T16:31:18Z</time>
      </trkpt>
      <trkpt lat="44.98668" lon="0.72603">
        <ele>178.46</ele>
        <time>2017-08-23T16:31:33Z</time>
      </trkpt>
      <trkpt lat="44.98669" lon="0.72603">
        <ele>177.98</ele>
        <time>2017-08-23T16:31:34Z</time>
      </trkpt>
      <trkpt lat="44.98678" lon="0.72601">
        <ele>177.98</ele>
        <time>2017-08-23T16:31:46Z</time>
      </trkpt>
      <trkpt lat="44.98695" lon="0.72603">
        <ele>178.46</ele>
        <time>2017-08-23T16:31:59Z</time>
      </trkpt>
      <trkpt lat="44.9871" lon="0.72607">
        <ele>178.46</ele>
        <time>2017-08-23T16:32:11Z</time>
      </trkpt>
      <trkpt lat="44.98723" lon="0.7261">
        <ele>178.46</ele>
        <time>2017-08-23T16:32:24Z</time>
      </trkpt>
      <trkpt lat="44.98724" lon="0.72611">
        <ele>178.94</ele>
        <time>2017-08-23T16:32:25Z</time>
      </trkpt>
      <trkpt lat="44.98731" lon="0.72614">
        <ele>178.94</ele>
        <time>2017-08-23T16:32:35Z</time>
      </trkpt>
      <trkpt lat="44.98741" lon="0.72614">
        <ele>179.42</ele>
        <time>2017-08-23T16:32:48Z</time>
      </trkpt>
      <trkpt lat="44.98746" lon="0.72602">
        <ele>177.98</ele>
        <time>2017-08-23T16:33:03Z</time>
      </trkpt>
      <trkpt lat="44.98742" lon="0.72592">
        <ele>177.02</ele>
        <time>2017-08-23T16:33:12Z</time>
      </trkpt>
      <trkpt lat="44.98737" lon="0.72575">
        <ele>175.1</ele>
        <time>2017-08-23T16:33:27Z</time>
      </trkpt>
      <trkpt lat="44.98731" lon="0.72559">
        <ele>174.14</ele>
        <time>2017-08-23T16:33:41Z</time>
      </trkpt>
      <trkpt lat="44.98732" lon="0.72556">
        <ele>173.66</ele>
        <time>2017-08-23T16:33:44Z</time>
      </trkpt>
      <trkpt lat="44.98732" lon="0.72553">
        <ele>173.17</ele>
        <time>2017-08-23T16:33:46Z</time>
      </trkpt>
      <trkpt lat="44.98729" lon="0.72531">
        <ele>171.25</ele>
        <time>2017-08-23T16:34:03Z</time>
      </trkpt>
      <trkpt lat="44.98722" lon="0.7251">
        <ele>168.85</ele>
        <time>2017-08-23T16:34:20Z</time>
      </trkpt>
      <trkpt lat="44.98716" lon="0.72492">
        <ele>167.89</ele>
        <time>2017-08-23T16:34:34Z</time>
      </trkpt>
      <trkpt lat="44.98712" lon="0.7248">
        <ele>166.45</ele>
        <time>2017-08-23T16:34:48Z</time>
      </trkpt>
      <trkpt lat="44.98702" lon="0.7246">
        <ele>164.04</ele>
        <time>2017-08-23T16:35:06Z</time>
      </trkpt>
      <trkpt lat="44.98698" lon="0.72453">
        <ele>163.56</ele>
        <time>2017-08-23T16:35:12Z</time>
      </trkpt>
      <trkpt lat="44.9869" lon="0.72439">
        <ele>162.12</ele>
        <time>2017-08-23T16:35:27Z</time>
      </trkpt>
      <trkpt lat="44.98688" lon="0.72432">
        <ele>161.64</ele>
        <time>2017-08-23T16:35:42Z</time>
      </trkpt>
      <trkpt lat="44.98683" lon="0.72423">
        <ele>160.68</ele>
        <time>2017-08-23T16:35:57Z</time>
      </trkpt>
      <trkpt lat="44.98679" lon="0.72416">
        <ele>159.72</ele>
        <time>2017-08-23T16:36:04Z</time>
      </trkpt>
      <trkpt lat="44.98672" lon="0.72396">
        <ele>158.75</ele>
        <time>2017-08-23T16:36:20Z</time>
      </trkpt>
      <trkpt lat="44.98671" lon="0.72395">
        <ele>158.75</ele>
        <time>2017-08-23T16:36:21Z</time>
      </trkpt>
      <trkpt lat="44.9867" lon="0.72391">
        <ele>158.75</ele>
        <time>2017-08-23T16:36:24Z</time>
      </trkpt>
      <trkpt lat="44.9866" lon="0.7237">
        <ele>157.79</ele>
        <time>2017-08-23T16:36:41Z</time>
      </trkpt>
      <trkpt lat="44.98659" lon="0.72367">
        <ele>157.31</ele>
        <time>2017-08-23T16:36:44Z</time>
      </trkpt>
      <trkpt lat="44.98653" lon="0.72345">
        <ele>157.31</ele>
        <time>2017-08-23T16:37:00Z</time>
      </trkpt>
      <trkpt lat="44.98651" lon="0.7233">
        <ele>156.35</ele>
        <time>2017-08-23T16:37:13Z</time>
      </trkpt>
      <trkpt lat="44.98645" lon="0.72313">
        <ele>155.87</ele>
        <time>2017-08-23T16:37:28Z</time>
      </trkpt>
      <trkpt lat="44.9864" lon="0.72298">
        <ele>155.39</ele>
        <time>2017-08-23T16:37:42Z</time>
      </trkpt>
      <trkpt lat="44.98638" lon="0.72285">
        <ele>154.91</ele>
        <time>2017-08-23T16:37:54Z</time>
      </trkpt>
      <trkpt lat="44.98641" lon="0.7228">
        <ele>155.39</ele>
        <time>2017-08-23T16:38:00Z</time>
      </trkpt>
      <trkpt lat="44.98646" lon="0.72278">
        <ele>155.87</ele>
        <time>2017-08-23T16:38:16Z</time>
      </trkpt>
      <trkpt lat="44.98646" lon="0.72275">
        <ele>156.35</ele>
        <time>2017-08-23T16:38:32Z</time>
      </trkpt>
      <trkpt lat="44.98645" lon="0.72268">
        <ele>155.39</ele>
        <time>2017-08-23T16:38:38Z</time>
      </trkpt>
      <trkpt lat="44.9865" lon="0.72255">
        <ele>155.39</ele>
        <time>2017-08-23T16:38:48Z</time>
      </trkpt>
      <trkpt lat="44.98656" lon="0.72242">
        <ele>155.87</ele>
        <time>2017-08-23T16:38:59Z</time>
      </trkpt>
      <trkpt lat="44.98659" lon="0.72229">
        <ele>155.87</ele>
        <time>2017-08-23T16:39:08Z</time>
      </trkpt>
      <trkpt lat="44.98658" lon="0.7222">
        <ele>155.87</ele>
        <time>2017-08-23T16:39:22Z</time>
      </trkpt>
      <trkpt lat="44.98658" lon="0.7222">
        <ele>151.54</ele>
        <time>2017-08-23T16:39:38Z</time>
      </trkpt>
      <trkpt lat="44.98658" lon="0.7222">
        <ele>158.75</ele>
        <time>2017-08-23T16:39:39Z</time>
      </trkpt>
      <trkpt lat="44.98658" lon="0.7222">
        <ele>154.43</ele>
        <time>2017-08-23T16:39:40Z</time>
      </trkpt>
      <trkpt lat="44.98658" lon="0.7222">
        <ele>159.24</ele>
        <time>2017-08-23T16:39:41Z</time>
      </trkpt>
      <trkpt lat="44.98658" lon="0.7222">
        <ele>155.87</ele>
        <time>2017-08-23T16:39:42Z</time>
      </trkpt>
      <trkpt lat="44.98658" lon="0.72218">
        <ele>155.87</ele>
        <time>2017-08-23T16:39:59Z</time>
      </trkpt>
      <trkpt lat="44.98658" lon="0.72218">
        <ele>155.87</ele>
        <time>2017-08-23T16:40:09Z</time>
      </trkpt>
    </trkseg>
  </trk>
</gpx>